Flight Track Log - Related Links

Times and Time Zones

All times are in EST time to prevent confusion due to time zone crossing. See the BOE236 flight status page for this flight to view local times or setup timezone preferences in your user account.

Time Position Orientation Groundspeed Altitude Reporting Facility
EST Latitude Longitude Course Direction KTS MPH feet Rate Location/Type
Thu 04:33:57 PM 47.5083 -122.2831 160° South 174 200 1,200  Level Seattle Center
Thu 04:34:05 PM 47.5042 -122.2808 144° Southeast 166 191 1,400 1,429 Climbing Seattle Center
Thu 04:34:39 PM 47.4786 -122.2536 128° Southeast 195 224 2,200 1,377 Climbing Seattle Center
Thu 04:35:06 PM 47.4647 -122.2275 110° East 209 241 2,800 1,964 Climbing Seattle Center
Thu 04:35:34 PM 47.4508 -122.1706 106° East 261 300 4,000 2,262 Climbing Seattle Center
Thu 04:36:07 PM 47.4425 -122.1269 101° East 261 300 5,100 1,967 Climbing Seattle Center
Thu 04:36:35 PM 47.4333 -122.0589 91° East 281 323 6,000 885 Climbing Seattle Center
Thu 04:37:08 PM 47.4325 -122.0119 90° East 291 335 6,000 1,832 Level Seattle Center
Thu 04:38:10 PM 47.4317 -121.8647 91° East 303 349 8,900 2,341 Climbing Seattle Center
Thu 04:39:11 PM 47.4303 -121.7356 91° East 318 366 10,800 1,561 Climbing Seattle Center
Thu 04:40:13 PM 47.4275 -121.5803 91° East 388 447 12,100 1,854 Climbing Seattle Center
Thu 04:41:14 PM 47.4258 -121.4194 92° East 398 458 14,600 2,902 Climbing Seattle Center
Thu 04:42:15 PM 47.4228 -121.2611 92° East 388 447 18,000 2,293 Climbing Seattle Center
Thu 04:43:17 PM 47.4200 -121.1106 92° East 379 436 19,300 1,220 Climbing Seattle Center
Thu 04:44:18 PM 47.4153 -120.9067 91° East 418 481 20,500 1,279 Climbing Seattle Center
Thu 04:45:19 PM 47.4125 -120.7547 92° East 437 503 21,900 1,561 Climbing Seattle Center
Thu 04:46:21 PM 47.4072 -120.5303 92° East 455 524 23,700 1,561 Climbing Seattle Center
Thu 04:47:22 PM 47.4031 -120.3400 92° East 464 534 25,100 1,279 Climbing Seattle Center
Thu 04:48:23 PM 47.3983 -120.1428 92° East 478 550 26,300 1,171 Climbing Seattle Center
Thu 04:49:25 PM 47.3922 -119.9392 92° East 493 567 27,500 1,220 Climbing Seattle Center
Thu 04:50:26 PM 47.3864 -119.7322 93° East 502 578 28,800 1,180 Climbing Seattle Center
Thu 04:51:27 PM 47.3800 -119.5236 86° East 510 587 29,900 1,024 Climbing Seattle Center
Thu 04:52:29 PM 47.3886 -119.3114 81° East 525 604 30,900 878 Climbing Seattle Center
Thu 04:53:30 PM 47.4108 -119.0964 80° East 533 613 31,700 889 Climbing Seattle Center
Thu 04:54:17 PM 47.4308 -118.9239 81° East 534 615 32,500 984 Climbing Salt Lake Center
Thu 04:54:31 PM 47.4353 -118.8803 81° East 536 617 32,700 689 Climbing Seattle Center
Thu 04:55:18 PM 47.4531 -118.7072 81° East 535 616 33,200 677 Climbing Salt Lake Center
Thu 04:55:33 PM 47.4628 -118.6189 81° East 538 619 33,400 677 Climbing Seattle Center
Thu 04:56:20 PM 47.4814 -118.4400 81° East 545 627 33,900 590 Climbing Salt Lake Center
Thu 04:56:34 PM 47.4864 -118.3950 81° East 549 632 34,000 484 Climbing Seattle Center
Thu 04:57:22 PM 47.5047 -118.2139 81° East 555 639 34,400 492 Climbing Salt Lake Center
Thu 04:57:35 PM 47.5094 -118.1681 82° East 556 640 34,500 484 Climbing Seattle Center
Thu 04:58:24 PM 47.5275 -117.9836 80° East 563 648 34,900 484 Climbing Salt Lake Center
Thu 04:58:37 PM 47.5328 -117.9375 82° East 565 650 35,000 97 Climbing Seattle Center
Thu 04:59:26 PM 47.5511 -117.7506 83° East 571 657 35,000  Level Salt Lake Center
Thu 04:59:38 PM 47.5553 -117.7033 87° East 572 658 35,000  Level Seattle Center
Thu 05:00:28 PM 47.5611 -117.5139 92° East 577 664 35,000  Level Salt Lake Center
Thu 05:00:40 PM 47.5600 -117.4678 106° East 576 663 35,000  Level Seattle Center
Thu 05:01:29 PM 47.5250 -117.2903 128° Southeast 576 663 35,000 -98 Level Salt Lake Center
Thu 05:01:41 PM 47.5058 -117.2544 155° Southeast 577 664 34,900 -97 Descending Seattle Center
Thu 05:02:31 PM 47.3758 -117.1639 181° South 535 616 34,900  Level Salt Lake Center
Thu 05:02:42 PM 47.3481 -117.1644 191° South 522 601 34,900  Level Seattle Center
Thu 05:03:33 PM 47.2411 -117.1961 191° South 497 572 34,900 97 Level Salt Lake Center
Thu 05:03:44 PM 47.2142 -117.2036 192° South 493 567 35,000  Climbing Seattle Center
Thu 05:04:35 PM 47.1083 -117.2358 193° South 490 564 34,900 -98 Descending Salt Lake Center
Thu 05:04:45 PM 47.0817 -117.2450 192° South 490 564 34,900 97 Level Seattle Center
Thu 05:05:37 PM 46.9756 -117.2794 189° South 491 565 35,000 97 Climbing Salt Lake Center
Thu 05:05:47 PM 46.9481 -117.2861 192° South 490 564 35,000 761 Level Seattle Center
Thu 05:06:48 PM 46.8156 -117.3258 192° South 488 562 35,900 439 Climbing Seattle Center
Thu 05:07:50 PM 46.6869 -117.3656 192° South 476 548 35,900 195 Level Seattle Center
Thu 05:08:51 PM 46.5597 -117.4058 192° South 472 543 36,300 541 Climbing Seattle Center
Thu 05:09:52 PM 46.4311 -117.4439 192° South 471 542 37,000 293 Climbing Seattle Center
Thu 05:10:54 PM 46.2761 -117.4906 192° South 473 544 36,900  Descending Seattle Center
Thu 05:11:55 PM 46.1481 -117.5289 191° South 472 543 37,000 49 Climbing Seattle Center
Thu 05:12:56 PM 46.0208 -117.5658 192° South 469 540 37,000 -49 Level Seattle Center
Thu 05:13:58 PM 45.8931 -117.6042 191° South 469 540 36,900 -49 Descending Seattle Center
Thu 05:14:59 PM 45.7653 -117.6411 191° South 469 540 36,900 49 Level Seattle Center
Thu 05:16:00 PM 45.6464 -117.6750 192° South 469 540 37,000 49 Climbing Seattle Center
Thu 05:17:02 PM 45.4931 -117.7208 191° South 470 541 37,000  Level Seattle Center
Thu 05:18:03 PM 45.3647 -117.7578 191° South 471 542 37,000  Level Seattle Center
Thu 05:19:04 PM 45.2353 -117.7947 192° South 474 545 37,000  Level Seattle Center
Thu 05:20:06 PM 45.1033 -117.8328 191° South 473 544 37,000  Level Seattle Center
Thu 05:21:07 PM 44.9800 -117.8672 192° South 472 543 37,000  Level Seattle Center
Thu 05:22:08 PM 44.8364 -117.9089 191° South 473 544 37,000  Level Seattle Center
Thu 05:23:09 PM 44.7125 -117.9436 191° South 474 545 37,000  Level Seattle Center
Thu 05:24:11 PM 44.5681 -117.9839 191° South 474 545 37,000  Level Seattle Center
Thu 05:25:12 PM 44.4453 -118.0181 191° South 472 543 37,000  Level Seattle Center
Thu 05:26:13 PM 44.3225 -118.0528 191° South 473 544 37,000  Level Seattle Center
Thu 05:26:16 PM 44.3033 -118.0581 191° South 472 543 37,000  Level Salt Lake Center
Thu 05:27:18 PM 44.1797 -118.0925 191° South 472 543 37,000  Level Salt Lake Center
Thu 05:28:16 PM 44.0547 -118.1267 191° South 474 545 37,000  Level Seattle Center
Thu 05:29:17 PM 43.9114 -118.1664 192° South 472 543 37,000  Level Seattle Center
Thu 05:30:18 PM 43.7858 -118.2022 187° South 478 550 37,000  Level Seattle Center
Thu 05:30:24 PM 43.7628 -118.2061 191° South 478 550 37,000  Level Salt Lake Center
Thu 05:31:26 PM 43.6386 -118.2392 191° South 477 549 37,000  Level Salt Lake Center
Thu 05:32:29 PM 43.4931 -118.2783 191° South 478 550 37,000  Level Salt Lake Center
Thu 05:33:30 PM 43.3753 -118.3111 191° South 476 548 37,000  Level Salt Lake Center
Thu 05:34:32 PM 43.2450 -118.3464 191° South 477 549 37,000  Level Salt Lake Center
Thu 05:35:34 PM 43.1153 -118.3819 191° South 479 551 37,000  Level Salt Lake Center
Thu 05:36:36 PM 42.9586 -118.4242 190° South 480 552 37,000  Level Salt Lake Center
Thu 05:37:38 PM 42.8292 -118.4561 191° South 478 550 37,000  Level Salt Lake Center
Thu 05:38:40 PM 42.7069 -118.4889 190° South 458 527 37,000  Level Salt Lake Center
Thu 05:39:42 PM 42.5861 -118.5169 143° Southeast 446 513 37,000  Level Salt Lake Center
Thu 05:40:44 PM 42.4806 -118.4083 70° East 523 602 37,000  Level Salt Lake Center
Thu 05:41:46 PM 42.5319 -118.2131 351° North 491 565 37,000  Level Salt Lake Center
Thu 05:42:49 PM 42.6378 -118.2361 331° Northwest 399 459 37,000  Level Salt Lake Center
Thu 05:43:51 PM 42.7297 -118.3053 333° Northwest 381 438 37,000  Level Salt Lake Center
Thu 05:44:53 PM 42.8272 -118.3744 336° Northwest 392 451 37,000  Level Salt Lake Center
Thu 05:45:55 PM 42.9322 -118.4378 10° North 412 474 37,000  Level Salt Lake Center
Thu 05:46:57 PM 43.0844 -118.4022 12° North 478 550 37,000  Level Salt Lake Center
Thu 05:47:59 PM 43.2142 -118.3647 12° North 479 551 37,000  Level Salt Lake Center
Thu 05:49:01 PM 43.3433 -118.3258 12° North 479 551 37,000  Level Salt Lake Center
Thu 05:50:03 PM 43.4722 -118.2867 13° North 478 550 37,000  Level Salt Lake Center
Thu 05:51:05 PM 43.6139 -118.2422 12° North 474 545 37,000  Level Salt Lake Center
Thu 05:52:08 PM 43.7383 -118.2058 12° North 476 548 37,000  Level Salt Lake Center
Thu 05:53:10 PM 43.8844 -118.1614 12° North 478 550 37,000  Level Salt Lake Center
Thu 05:54:12 PM 44.0094 -118.1231 12° North 479 551 37,000  Level Salt Lake Center
Thu 05:55:14 PM 44.1561 -118.0786 12° North 480 552 37,000  Level Salt Lake Center
Thu 05:56:16 PM 44.2817 -118.0403 13° North 481 554 37,000  Level Salt Lake Center
Thu 05:57:18 PM 44.4269 -117.9947 14° North 479 551 37,000  Level Salt Lake Center
Thu 05:58:20 PM 44.5442 -117.9550 14° North 464 534 37,000  Level Salt Lake Center
Thu 05:59:22 PM 44.6792 -117.9083 15° North 448 516 37,000  Level Salt Lake Center
Thu 06:00:24 PM 44.7956 -117.8653 70° East 449 517 37,000  Level Salt Lake Center
Thu 06:01:26 PM 44.8475 -117.6614 100° East 532 612 37,000  Level Salt Lake Center
Thu 06:02:28 PM 44.8206 -117.4561 101° East 561 646 37,000  Level Salt Lake Center
Thu 06:03:30 PM 44.7861 -117.2136 101° East 568 654 37,000  Level Salt Lake Center
Thu 06:04:33 PM 44.7561 -117.0000 99° East 578 665 37,000  Level Salt Lake Center
Thu 06:05:34 PM 44.7322 -116.7825 98° East 583 671 37,000  Level Salt Lake Center
Thu 06:06:36 PM 44.7075 -116.5267 98° East 588 677 37,000  Level Salt Lake Center
Thu 06:07:38 PM 44.6856 -116.3056 98° East 591 680 37,000  Level Salt Lake Center
Thu 06:10:44 PM 44.6128 -115.6028 99° East 592 681 37,000  Level Salt Lake Center
Thu 06:11:46 PM 44.5847 -115.3461 99° East 594 684 37,000  Level Salt Lake Center
Thu 06:12:49 PM 44.5606 -115.1269 99° East 594 684 37,000  Level Salt Lake Center
Thu 06:13:50 PM 44.5311 -114.8725 99° East 593 682 37,000  Level Salt Lake Center
Thu 06:14:52 PM 44.5053 -114.6547 99° East 593 682 37,000  Level Salt Lake Center
Thu 06:15:54 PM 44.4758 -114.4006 99° East 592 681 37,000  Level Salt Lake Center
Thu 06:16:56 PM 44.4497 -114.1828 100° East 592 681 37,000  Level Salt Lake Center
Thu 06:17:58 PM 44.4167 -113.9292 99° East 594 684 37,000  Level Salt Lake Center
Thu 06:19:00 PM 44.3922 -113.7250 100° East 594 684 37,000  Level Salt Lake Center
Thu 06:20:02 PM 44.3606 -113.4719 100° East 594 684 37,000  Level Salt Lake Center
Thu 06:21:04 PM 44.3325 -113.2556 100° East 593 682 37,000  Level Salt Lake Center
Thu 06:22:06 PM 44.3003 -113.0039 101° East 591 680 37,000  Level Salt Lake Center
Thu 06:23:08 PM 44.2714 -112.7897 82° East 590 679 37,000  Level Salt Lake Center
Thu 06:24:10 PM 44.2953 -112.5583 40° Northeast 549 632 37,000  Level Salt Lake Center
Thu 06:25:12 PM 44.3886 -112.4486 14° North 467 537 37,000  Level Salt Lake Center
Thu 06:26:14 PM 44.5147 -112.4033 14° North 422 486 37,000  Level Salt Lake Center
Thu 06:27:16 PM 44.6217 -112.3647 14° North 416 479 37,000  Level Salt Lake Center
Thu 06:28:18 PM 44.7303 -112.3267 14° North 418 481 37,000  Level Salt Lake Center
Thu 06:29:20 PM 44.8569 -112.2819 14° North 418 481 37,000  Level Salt Lake Center
Thu 06:30:22 PM 44.9656 -112.2436 14° North 418 481 37,000  Level Salt Lake Center
Thu 06:31:24 PM 45.0914 -112.2003 14° North 417 480 37,000  Level Salt Lake Center
Thu 06:32:26 PM 45.2003 -112.1606 14° North 419 482 37,000  Level Salt Lake Center
Thu 06:33:28 PM 45.3275 -112.1147 14° North 420 483 37,000  Level Salt Lake Center
Thu 06:34:30 PM 45.4450 -112.0744 14° North 418 481 37,000  Level Salt Lake Center
Thu 06:35:32 PM 45.5581 -112.0331 14° North 418 481 37,000  Level Salt Lake Center
Thu 06:36:34 PM 45.6722 -111.9925 14° North 419 482 37,000  Level Salt Lake Center
Thu 06:37:36 PM 45.7861 -111.9511 14° North 420 483 37,000  Level Salt Lake Center
Thu 06:38:38 PM 45.9000 -111.9092 14° North 420 483 37,000  Level Salt Lake Center
Thu 06:39:40 PM 46.0147 -111.8681 15° North 420 483 37,000  Level Salt Lake Center
Thu 06:40:42 PM 46.1281 -111.8247 14° North 419 482 37,000  Level Salt Lake Center
Thu 06:41:44 PM 46.2419 -111.7842 14° North 419 482 37,000  Level Salt Lake Center
Thu 06:42:46 PM 46.3783 -111.7347 14° North 419 482 37,000  Level Salt Lake Center
Thu 06:43:48 PM 46.4925 -111.6919 14° North 421 484 37,000  Level Salt Lake Center
Thu 06:44:50 PM 46.6072 -111.6492 14° North 423 487 37,000  Level Salt Lake Center
Thu 06:45:53 PM 46.7219 -111.6069 16° North 423 487 37,000 -48 Level Salt Lake Center
Thu 06:46:55 PM 46.8375 -111.5600 15° North 427 491 36,900  Descending Salt Lake Center
Thu 06:47:57 PM 46.9506 -111.5153 15° North 430 495 37,000 48 Climbing Salt Lake Center
Thu 06:48:59 PM 47.0878 -111.4622 North 428 493 37,000 -48 Level Salt Lake Center
Thu 06:50:01 PM 47.1981 -111.4606 304° West 415 478 36,900  Descending Salt Lake Center
Thu 06:51:03 PM 47.2544 -111.5833 275° West 379 436 37,000 49 Climbing Salt Lake Center
Thu 06:52:04 PM 47.2636 -111.7433 278° West 391 450 37,000  Level Salt Lake Center
Thu 06:53:06 PM 47.2778 -111.8981 277° West 384 442 37,000  Level Salt Lake Center
Thu 06:54:08 PM 47.2911 -112.0561 278° West 386 444 37,000  Level Salt Lake Center
Thu 06:55:10 PM 47.3056 -112.2128 277° West 386 444 37,000  Level Salt Lake Center
Thu 06:56:12 PM 47.3219 -112.4011 277° West 387 445 37,000  Level Salt Lake Center
Thu 06:57:14 PM 47.3353 -112.5561 277° West 384 442 37,000 -48 Level Salt Lake Center
Thu 06:58:16 PM 47.3481 -112.7114 277° West 383 441 36,900  Descending Salt Lake Center
Thu 06:59:18 PM 47.3608 -112.8669 278° West 382 440 37,000  Climbing Salt Lake Center
Thu 07:00:20 PM 47.3758 -113.0358 277° West 384 442 36,900 -48 Descending Salt Lake Center
Thu 07:01:22 PM 47.3889 -113.1942 277° West 387 445 36,900 48 Level Salt Lake Center
Thu 07:02:24 PM 47.4011 -113.3492 277° West 383 441 37,000  Climbing Salt Lake Center
Thu 07:03:26 PM 47.4133 -113.5039 276° West 381 438 36,900 242 Descending Salt Lake Center
Thu 07:04:28 PM 47.4244 -113.6575 276° West 378 435 37,500 532 Climbing Salt Lake Center
Thu 07:05:30 PM 47.4381 -113.8422 277° West 377 434 38,000 484 Climbing Salt Lake Center
Thu 07:06:32 PM 47.4500 -113.9986 276° West 380 437 38,500 290 Climbing Salt Lake Center
Thu 07:07:34 PM 47.4611 -114.1544 276° West 381 438 38,600 242 Climbing Salt Lake Center
Thu 07:08:36 PM 47.4725 -114.3131 276° West 385 443 39,000 242 Climbing Salt Lake Center
Thu 07:09:13 PM 47.4792 -114.4097 275° West 388 447 39,000 -61 Level Salt Lake Center
Thu 07:10:15 PM 47.4892 -114.5708 246° West 390 449 38,900 -57 Descending Salt Lake Center
Thu 07:10:58 PM 47.4514 -114.6964 205° Southwest 423 487 38,900 57 Level Seattle Center
Thu 07:12:00 PM 47.3333 -114.7792 193° South 485 558 39,000  Climbing Seattle Center
Thu 07:12:19 PM 47.3064 -114.7881 194° South 497 572 38,900  Descending Salt Lake Center
Thu 07:13:21 PM 47.1464 -114.8461 194° South 494 568 39,000  Climbing Salt Lake Center
Thu 07:14:24 PM 47.0128 -114.8944 194° South 496 571 38,900  Descending Salt Lake Center
Thu 07:16:05 PM 46.7992 -114.9725 194° South 495 570 39,000  Climbing Seattle Center
Thu 07:17:07 PM 46.6492 -115.0258 193° South 491 565 38,900  Descending Seattle Center
Thu 07:18:08 PM 46.5161 -115.0722 194° South 492 566 39,000  Climbing Seattle Center
Thu 07:19:09 PM 46.3836 -115.1192 194° South 490 564 38,900  Descending Seattle Center
Thu 07:20:11 PM 46.2511 -115.1658 194° South 489 563 39,000 49 Climbing Seattle Center
Thu 07:21:12 PM 46.1178 -115.2128 194° South 493 567 39,000  Level Seattle Center
Thu 07:21:38 PM 46.0492 -115.2367 193° South 492 566 39,000  Level Salt Lake Center
Thu 07:22:40 PM 45.9219 -115.2803 194° South 491 565 39,000  Level Salt Lake Center
Thu 07:23:15 PM 45.8375 -115.3106 193° South 488 562 39,000  Level Seattle Center
Thu 07:24:16 PM 45.7108 -115.3533 194° South 488 562 39,000  Level Seattle Center
Thu 07:25:18 PM 45.5642 -115.4039 193° South 486 559 39,000  Level Seattle Center
Thu 07:25:46 PM 45.5019 -115.4247 194° South 486 559 39,000  Level Salt Lake Center
Thu 07:26:48 PM 45.3775 -115.4678 193° South 483 556 39,000  Level Salt Lake Center
Thu 07:27:50 PM 45.2322 -115.5172 193° South 480 552 39,000  Level Salt Lake Center
Thu 07:28:52 PM 45.1064 -115.5594 193° South 483 556 39,000  Level Salt Lake Center
Thu 07:29:55 PM 44.9589 -115.6094 194° South 486 559 39,000  Level Salt Lake Center
Thu 07:30:57 PM 44.8333 -115.6522 194° South 485 558 39,000  Level Salt Lake Center
Thu 07:31:59 PM 44.6875 -115.7017 193° South 482 555 39,000  Level Salt Lake Center
Thu 07:33:01 PM 44.5614 -115.7428 193° South 482 555 39,000  Level Salt Lake Center
Thu 07:34:03 PM 44.4336 -115.7856 193° South 484 557 39,000  Level Salt Lake Center
Thu 07:35:05 PM 44.2844 -115.8342 193° South 486 559 39,000  Level Salt Lake Center
Thu 07:36:07 PM 44.1567 -115.8764 194° South 487 560 39,000  Level Salt Lake Center
Thu 07:37:10 PM 44.0100 -115.9256 193° South 484 557 39,000  Level Salt Lake Center
Thu 07:38:12 PM 43.8844 -115.9669 193° South 483 556 39,000  Level Salt Lake Center
Thu 07:39:14 PM 43.7378 -116.0136 193° South 483 556 39,000  Level Salt Lake Center
Thu 07:41:18 PM 43.4639 -116.1008 193° South 486 559 39,000  Level Salt Lake Center
Thu 07:42:20 PM 43.3369 -116.1408 193° South 488 562 39,000  Level Salt Lake Center
Thu 07:43:22 PM 43.2108 -116.1814 193° South 486 559 39,000  Level Salt Lake Center
Thu 07:44:25 PM 43.0614 -116.2275 193° South 491 565 39,000  Level Salt Lake Center
Thu 07:45:27 PM 42.9344 -116.2667 193° South 489 563 39,000  Level Salt Lake Center
Thu 07:46:29 PM 42.7861 -116.3119 193° South 488 562 39,000  Level Salt Lake Center
Thu 07:47:31 PM 42.6592 -116.3511 193° South 488 562 39,000  Level Salt Lake Center
Thu 07:48:33 PM 42.5108 -116.3978 192° South 489 563 39,000  Level Salt Lake Center
Thu 07:49:35 PM 42.3836 -116.4358 157° South 489 563 39,000  Level Salt Lake Center
Thu 07:50:38 PM 42.2342 -116.3492 112° Southeast 549 632 39,000  Level Salt Lake Center
Thu 07:51:40 PM 42.1775 -116.1622 103° East 574 661 39,000  Level Salt Lake Center
Thu 07:52:42 PM 42.1381 -115.9306 103° East 568 654 39,000  Level Salt Lake Center
Thu 07:53:44 PM 42.1036 -115.7311 103° East 572 658 39,000  Level Salt Lake Center
Thu 07:54:46 PM 42.0622 -115.4997 103° East 573 659 39,000  Level Salt Lake Center
Thu 07:55:48 PM 42.0267 -115.3003 104° East 572 658 39,000  Level Salt Lake Center
Thu 07:56:50 PM 41.9897 -115.0997 104° East 575 662 39,000  Level Salt Lake Center
Thu 07:57:52 PM 41.9469 -114.8664 104° East 576 663 39,000  Level Salt Lake Center
Thu 07:58:54 PM 41.9106 -114.6667 104° East 575 662 39,000  Level Salt Lake Center
Thu 07:59:56 PM 41.8689 -114.4492 104° East 577 664 39,000  Level Salt Lake Center
Thu 08:00:58 PM 41.8219 -114.2042 104° East 577 664 39,000  Level Salt Lake Center
Thu 08:02:00 PM 41.7814 -113.9922 105° East 580 667 39,000  Level Salt Lake Center
Thu 08:03:02 PM 41.7392 -113.7825 99° East 580 667 39,000  Level Salt Lake Center
Thu 08:04:04 PM 41.7133 -113.5711 62° Northeast 577 664 39,000  Level Salt Lake Center
Thu 08:05:06 PM 41.7794 -113.4075 24° Northeast 504 580 39,000  Level Salt Lake Center
Thu 08:06:08 PM 41.8942 -113.3397 13° North 449 517 39,000  Level Salt Lake Center
Thu 08:07:10 PM 42.0103 -113.3036 14° North 428 493 39,000  Level Salt Lake Center
Thu 08:08:12 PM 42.1272 -113.2653 14° North 429 494 39,000  Level Salt Lake Center
Thu 08:09:14 PM 42.2647 -113.2203 14° North 430 495 39,000  Level Salt Lake Center
Thu 08:10:16 PM 42.3828 -113.1811 14° North 431 496 39,000  Level Salt Lake Center
Thu 08:11:18 PM 42.5006 -113.1414 13° North 432 497 39,000  Level Salt Lake Center
Thu 08:12:20 PM 42.6181 -113.1033 14° North 431 496 39,000  Level Salt Lake Center
Thu 08:13:23 PM 42.7392 -113.0622 14° North 432 497 39,000  Level Salt Lake Center
Thu 08:14:24 PM 42.8506 -113.0250 14° North 430 495 39,000  Level Salt Lake Center
Thu 08:15:27 PM 42.9806 -112.9822 14° North 430 495 39,000  Level Salt Lake Center
Thu 08:16:29 PM 43.0911 -112.9444 14° North 429 494 39,000  Level Salt Lake Center
Thu 08:17:31 PM 43.2242 -112.8989 14° North 429 494 39,000  Level Salt Lake Center
Thu 08:18:33 PM 43.3319 -112.8611 14° North 429 494 39,000  Level Salt Lake Center
Thu 08:19:35 PM 43.4622 -112.8175 14° North 431 496 39,000  Level Salt Lake Center
Thu 08:20:37 PM 43.5731 -112.7789 15° North 430 495 39,000  Level Salt Lake Center
Thu 08:21:39 PM 43.7014 -112.7325 13° North 428 493 39,000  Level Salt Lake Center
Thu 08:22:41 PM 43.8119 -112.6964 14° North 426 490 39,000  Level Salt Lake Center
Thu 08:23:43 PM 43.9411 -112.6525 14° North 427 491 39,000  Level Salt Lake Center
Thu 08:24:45 PM 44.0519 -112.6131 14° North 428 493 39,000  Level Salt Lake Center
Thu 08:25:47 PM 44.1806 -112.5675 14° North 427 491 39,000  Level Salt Lake Center
Thu 08:26:48 PM 44.2922 -112.5286 14° North 429 494 39,000  Level Salt Lake Center
Thu 08:27:50 PM 44.4039 -112.4894 14° North 430 495 39,000  Level Salt Lake Center
Thu 08:28:52 PM 44.5347 -112.4431 14° North 432 497 39,000  Level Salt Lake Center
Thu 08:29:54 PM 44.6469 -112.4025 14° North 432 497 39,000  Level Salt Lake Center
Thu 08:30:56 PM 44.7778 -112.3564 14° North 432 497 39,000  Level Salt Lake Center
Thu 08:31:58 PM 44.8889 -112.3158 14° North 431 496 39,000  Level Salt Lake Center
Thu 08:33:00 PM 45.0189 -112.2703 15° North 429 494 39,000  Level Salt Lake Center
Thu 08:34:02 PM 45.1314 -112.2286 14° North 433 498 39,000  Level Salt Lake Center
Thu 08:35:04 PM 45.2419 -112.1881 14° North 430 495 39,000  Level Salt Lake Center
Thu 08:36:06 PM 45.3706 -112.1431 15° North 427 491 39,000  Level Salt Lake Center
Thu 08:37:08 PM 45.4736 -112.1047 15° North 426 490 39,000  Level Salt Lake Center
Thu 08:38:10 PM 45.6136 -112.0522 14° North 429 494 39,000  Level Salt Lake Center
Thu 08:39:12 PM 45.7303 -112.0092 14° North 430 495 39,000  Level Salt Lake Center
Thu 08:40:14 PM 45.8489 -111.9667 15° North 434 499 39,000  Level Salt Lake Center
Thu 08:41:16 PM 45.9669 -111.9217 15° North 435 501 39,000  Level Salt Lake Center
Thu 08:42:18 PM 46.0839 -111.8775 15° North 433 498 39,000  Level Salt Lake Center
Thu 08:43:19 PM 46.2008 -111.8331 14° North 432 497 39,000  Level Salt Lake Center
Thu 08:44:21 PM 46.3175 -111.7894 15° North 432 497 39,000 -48 Level Salt Lake Center
Thu 08:45:23 PM 46.4486 -111.7378 15° North 431 496 38,900  Descending Salt Lake Center
Thu 08:46:25 PM 46.5653 -111.6928 15° North 433 498 39,000 48 Climbing Salt Lake Center
Thu 08:47:27 PM 46.6822 -111.6478 15° North 435 501 39,000  Level Salt Lake Center
Thu 08:48:28 PM 46.8000 -111.6019 15° North 437 503 39,000 -49 Level Salt Lake Center
Thu 08:49:30 PM 46.9178 -111.5556 15° North 439 505 38,900  Descending Salt Lake Center
Thu 08:50:32 PM 47.0356 -111.5097 24° Northeast 439 505 39,000  Climbing Salt Lake Center
Thu 08:51:34 PM 47.1489 -111.4353 68° East 456 525 38,900  Descending Salt Lake Center
Thu 08:52:35 PM 47.2111 -111.2061 97° East 526 605 39,000 49 Climbing Salt Lake Center
Thu 08:53:37 PM 47.1911 -110.9783 98° East 573 659 39,000 -48 Level Salt Lake Center
Thu 08:54:39 PM 47.1675 -110.7464 99° East 578 665 38,900  Descending Salt Lake Center
Thu 08:55:40 PM 47.1431 -110.5144 99° East 579 666 39,000  Climbing Salt Lake Center
Thu 08:56:42 PM 47.1189 -110.2817 99° East 580 667 38,900 -48 Descending Salt Lake Center
Thu 08:57:44 PM 47.0900 -110.0014 98° East 581 669 38,900 49 Level Salt Lake Center
Thu 08:58:45 PM 47.0675 -109.7678 99° East 582 670 39,000  Climbing Salt Lake Center
Thu 08:59:47 PM 47.0417 -109.5422 99° East 574 661 38,900 -48 Descending Salt Lake Center
Thu 09:00:49 PM 47.0156 -109.3150 100° East 568 654 38,900 49 Level Salt Lake Center
Thu 09:01:50 PM 46.9894 -109.0892 100° East 567 652 39,000 49 Climbing Salt Lake Center
Thu 09:02:52 PM 46.9581 -108.8383 100° East 563 648 39,000  Level Salt Lake Center
Thu 09:03:53 PM 46.9325 -108.6203 100° East 565 650 39,000  Level Salt Lake Center
Thu 09:04:55 PM 46.9019 -108.3683 100° East 564 649 39,000  Level Salt Lake Center
Thu 09:05:57 PM 46.8758 -108.1525 100° East 564 649 39,000  Level Salt Lake Center
Thu 09:06:58 PM 46.8483 -107.9325 100° East 568 654 39,000  Level Salt Lake Center
Thu 09:08:00 PM 46.8161 -107.6750 108° East 574 661 39,000  Level Salt Lake Center
Thu 09:09:02 PM 46.7700 -107.4650 151° Southeast 576 663 39,000  Level Salt Lake Center
Thu 09:10:03 PM 46.6111 -107.3381 195° South 608 700 39,000  Level Salt Lake Center
Thu 09:11:05 PM 46.4703 -107.3928 206° Southwest 556 640 39,000  Level Salt Lake Center
Thu 09:12:07 PM 46.3206 -107.4969 206° Southwest 535 616 39,000  Level Salt Lake Center
Thu 09:13:08 PM 46.1939 -107.5881 207° Southwest 533 613 39,000  Level Salt Lake Center
Thu 09:14:10 PM 46.0678 -107.6792 206° Southwest 531 611 39,000  Level Salt Lake Center
Thu 09:15:11 PM 45.9206 -107.7844 206° Southwest 530 610 39,000  Level Salt Lake Center
Thu 09:16:13 PM 45.7942 -107.8733 207° Southwest 529 609 39,000  Level Salt Lake Center
Thu 09:17:15 PM 45.6486 -107.9772 206° Southwest 526 605 39,000  Level Salt Lake Center
Thu 09:18:16 PM 45.5231 -108.0658 206° Southwest 526 605 39,000  Level Salt Lake Center
Thu 09:19:18 PM 45.3747 -108.1694 206° Southwest 532 612 39,000  Level Salt Lake Center
Thu 09:20:19 PM 45.2489 -108.2575 206° Southwest 530 610 39,000  Level Salt Lake Center
Thu 09:21:21 PM 45.1019 -108.3600 206° Southwest 530 610 39,000  Level Salt Lake Center
Thu 09:22:23 PM 44.9775 -108.4475 206° Southwest 528 608 39,000  Level Salt Lake Center
Thu 09:23:24 PM 44.8519 -108.5333 206° Southwest 527 606 39,000  Level Salt Lake Center
Thu 09:24:26 PM 44.7056 -108.6322 206° Southwest 527 606 39,000  Level Salt Lake Center
Thu 09:26:29 PM 44.4378 -108.8136 206° Southwest 516 594 39,000  Level Salt Lake Center
Thu 09:27:31 PM 44.3139 -108.8964 206° Southwest 516 594 39,000  Level Salt Lake Center
Thu 09:28:33 PM 44.1689 -108.9931 206° Southwest 517 595 39,000  Level Salt Lake Center
Thu 09:29:34 PM 44.0442 -109.0761 205° Southwest 519 597 39,000  Level Salt Lake Center
Thu 09:30:36 PM 43.8983 -109.1725 205° Southwest 519 597 39,000  Level Salt Lake Center
Thu 09:31:37 PM 43.7728 -109.2544 205° Southwest 521 600 39,000  Level Salt Lake Center
Thu 09:32:39 PM 43.6481 -109.3364 205° Southwest 520 598 39,000  Level Salt Lake Center
Thu 09:33:40 PM 43.5022 -109.4322 205° Southwest 520 598 39,000  Level Salt Lake Center
Thu 09:34:42 PM 43.3758 -109.5131 205° Southwest 521 600 39,000  Level Salt Lake Center
Thu 09:35:44 PM 43.2281 -109.6089 205° Southwest 524 603 39,000  Level Salt Lake Center
Thu 09:36:45 PM 43.1017 -109.6894 205° Southwest 524 603 39,000  Level Salt Lake Center
Thu 09:37:47 PM 42.9617 -109.7797 205° Southwest 523 602 39,000  Level Salt Lake Center
Thu 09:38:48 PM 42.8231 -109.8675 205° Southwest 519 597 39,000  Level Salt Lake Center
Thu 09:39:50 PM 42.6897 -109.9519 205° Southwest 522 601 39,000  Level Salt Lake Center
Thu 09:40:52 PM 42.5622 -110.0314 205° Southwest 526 605 39,000  Level Salt Lake Center
Thu 09:41:53 PM 42.4142 -110.1228 205° Southwest 526 605 39,000  Level Salt Lake Center
Thu 09:42:55 PM 42.2872 -110.2031 205° Southwest 527 606 39,000  Level Salt Lake Center
Thu 09:43:56 PM 42.1408 -110.2933 204° Southwest 521 600 39,000  Level Salt Lake Center
Thu 09:44:58 PM 42.0156 -110.3700 205° Southwest 520 598 39,000  Level Salt Lake Center
Thu 09:46:00 PM 41.8900 -110.4478 204° Southwest 520 598 39,000  Level Salt Lake Center
Thu 09:47:01 PM 41.7417 -110.5378 205° Southwest 524 603 39,000  Level Salt Lake Center
Thu 09:48:03 PM 41.6139 -110.6158 204° Southwest 527 606 39,000  Level Salt Lake Center
Thu 09:49:04 PM 41.4644 -110.7047 204° Southwest 528 608 39,000  Level Salt Lake Center
Thu 09:50:06 PM 41.3397 -110.7792 253° West 523 602 39,000  Level Salt Lake Center
Thu 09:51:08 PM 41.3078 -110.9200 360° North 384 442 39,000  Level Salt Lake Center
Thu 09:52:09 PM 41.3950 -110.9203 66° East 383 441 39,000  Level Salt Lake Center
Thu 09:53:11 PM 41.4475 -110.7658 51° Northeast 475 547 39,000  Level Salt Lake Center
Thu 09:54:13 PM 41.5339 -110.6219 25° Northeast 455 524 39,000  Level Salt Lake Center
Thu 09:55:14 PM 41.6342 -110.5606 23° Northeast 422 486 39,000  Level Salt Lake Center
Thu 09:56:16 PM 41.7575 -110.4900 24° Northeast 424 488 39,000  Level Salt Lake Center
Thu 09:57:17 PM 41.8608 -110.4272 24° Northeast 425 489 39,000  Level Salt Lake Center
Thu 09:58:19 PM 41.9817 -110.3533 24° Northeast 426 490 39,000  Level Salt Lake Center
Thu 09:59:21 PM 42.0861 -110.2911 24° Northeast 427 491 39,000  Level Salt Lake Center
Thu 10:00:24 PM 42.1900 -110.2289 25° Northeast 426 490 39,000  Level Salt Lake Center
Thu 10:01:25 PM 42.3100 -110.1536 24° Northeast 425 489 39,000  Level Salt Lake Center
Thu 10:02:26 PM 42.4147 -110.0903 24° Northeast 429 494 39,000  Level Salt Lake Center
Thu 10:03:28 PM 42.5361 -110.0156 24° Northeast 428 493 39,000  Level Salt Lake Center
Thu 10:04:30 PM 42.6383 -109.9536 24° Northeast 423 487 39,000  Level Salt Lake Center
Thu 10:05:31 PM 42.7558 -109.8808 25° Northeast 424 488 39,000  Level Salt Lake Center
Thu 10:06:33 PM 42.8619 -109.8147 25° Northeast 425 489 39,000  Level Salt Lake Center
Thu 10:07:35 PM 42.9742 -109.7447 25° Northeast 424 488 39,000  Level Salt Lake Center
Thu 10:08:37 PM 43.0772 -109.6794 25° Northeast 426 490 39,000  Level Salt Lake Center
Thu 10:09:38 PM 43.1975 -109.6033 25° Northeast 426 490 39,000  Level Salt Lake Center
Thu 10:10:40 PM 43.3008 -109.5381 25° Northeast 426 490 39,000  Level Salt Lake Center
Thu 10:11:42 PM 43.4222 -109.4614 25° Northeast 428 493 39,000  Level Salt Lake Center
Thu 10:12:44 PM 43.5258 -109.3953 25° Northeast 428 493 39,000  Level Salt Lake Center
Thu 10:13:46 PM 43.6286 -109.3297 25° Northeast 427 491 39,000  Level Salt Lake Center
Thu 10:14:47 PM 43.7492 -109.2522 25° Northeast 426 490 39,000  Level Salt Lake Center
Thu 10:15:49 PM 43.8528 -109.1861 25° Northeast 427 491 39,000  Level Salt Lake Center
Thu 10:16:51 PM 43.9736 -109.1067 44° Northeast 429 494 39,000  Level Salt Lake Center
Thu 10:17:53 PM 44.0606 -108.9886 85° East 475 547 39,000  Level Salt Lake Center
Thu 10:18:55 PM 44.0764 -108.7553 92° East 561 646 39,000  Level Salt Lake Center
Thu 10:19:57 PM 44.0717 -108.5469 92° East 567 652 39,000  Level Salt Lake Center
Thu 10:20:58 PM 44.0647 -108.3036 92° East 567 652 39,000  Level Salt Lake Center
Thu 10:22:00 PM 44.0586 -108.0944 92° East 568 654 39,000  Level Salt Lake Center
Thu 10:23:02 PM 44.0522 -107.8533 93° East 565 650 39,000  Level Salt Lake Center
Thu 10:24:04 PM 44.0456 -107.6511 92° East 556 640 39,000  Level Salt Lake Center
Thu 10:25:06 PM 44.0392 -107.4508 93° East 549 632 39,000  Level Salt Lake Center
Thu 10:26:08 PM 44.0308 -107.2203 92° East 540 621 39,000  Level Salt Lake Center
Thu 10:27:10 PM 44.0250 -107.0225 93° East 538 619 39,000  Level Salt Lake Center
Thu 10:28:11 PM 44.0161 -106.7925 93° East 537 618 39,000  Level Salt Lake Center
Thu 10:29:13 PM 44.0075 -106.5947 116° Southeast 536 617 39,000  Level Salt Lake Center
Thu 10:30:15 PM 43.9331 -106.3806 148° Southeast 578 665 39,000  Level Salt Lake Center
Thu 10:31:17 PM 43.7978 -106.2614 141° Southeast 602 693 39,000  Level Salt Lake Center
Thu 10:31:22 PM 43.7742 -106.2353 148° Southeast 578 665 39,000  Level Denver Center
Thu 10:32:22 PM 43.6344 -106.1153 146° Southeast 598 688 39,000  Level Denver Center
Thu 10:33:22 PM 43.5092 -105.9989 135° Southeast 605 696 39,000  Level Denver Center
Thu 10:39:02 PM 42.8174 -105.0720 136° Southeast 597 687 39,000  Level FlightAware ADS-B
Thu 10:39:33 PM 42.7568 -104.9910 135° Southeast 599 689 39,000  Level FlightAware ADS-B
Thu 10:40:03 PM 42.6970 -104.9110 136° Southeast 594 684 39,000  Level FlightAware ADS-B
Thu 10:40:36 PM 42.6321 -104.8250 136° Southeast 590 679 39,000  Level FlightAware ADS-B
Thu 10:41:07 PM 42.5733 -104.7470 136° Southeast 588 677 39,000  Level FlightAware ADS-B
Thu 10:41:37 PM 42.5142 -104.6700 136° Southeast 587 676 39,000  Level FlightAware ADS-B
Thu 10:42:10 PM 42.4492 -104.5840 136° Southeast 588 677 39,000  Level FlightAware ADS-B
Thu 10:42:41 PM 42.3899 -104.5060 136° Southeast 589 678 39,000  Level FlightAware ADS-B
Thu 10:43:11 PM 42.3309 -104.4290 136° Southeast 589 678 39,000  Level FlightAware ADS-B
Thu 10:43:41 PM 42.2716 -104.3520 136° Southeast 586 674 39,000  Level FlightAware ADS-B
Thu 10:44:12 PM 42.2130 -104.2750 136° Southeast 579 666 39,000  Level FlightAware ADS-B
Thu 10:44:42 PM 42.1555 -104.2010 136° Southeast 575 662 39,000  Level FlightAware ADS-B
Thu 10:45:14 PM 42.0932 -104.1200 136° Southeast 574 661 39,000  Level FlightAware ADS-B
Thu 10:45:42 PM 42.0410 -104.0520 132° Southeast 572 658 39,000  Level FlightAware ADS-B
Thu 10:46:00 PM 42.0092 -104.0050 128° Southeast 567 652 39,000  Level FlightAware ADS-B
Thu 10:46:24 PM 41.9714 -103.9390 123° Southeast 563 648 39,000  Level FlightAware ADS-B
Thu 10:46:54 PM 41.9290 -103.8510 123° Southeast 560 644 39,000  Level FlightAware ADS-B
Thu 10:47:24 PM 41.8863 -103.7620 123° Southeast 564 649 39,000  Level FlightAware ADS-B
Thu 10:47:54 PM 41.8435 -103.6730 119° Southeast 566 651 39,000  Level FlightAware ADS-B
Thu 10:48:27 PM 41.8024 -103.5750 113° Southeast 558 642 39,000  Level FlightAware ADS-B
Thu 10:48:47 PM 41.7819 -103.5110 109° East 552 635 39,000  Level FlightAware ADS-B
Thu 10:49:17 PM 41.7572 -103.4140 109° East 545 627 39,000  Level FlightAware ADS-B
Thu 10:49:48 PM 41.7325 -103.3180 109° East 545 627 39,000  Level FlightAware ADS-B
Thu 10:50:18 PM 41.7079 -103.2220 109° East 545 627 39,000  Level FlightAware ADS-B
Thu 10:50:48 PM 41.6830 -103.1270 109° East 545 627 39,000  Level FlightAware ADS-B
Thu 10:51:18 PM 41.6580 -103.0300 108° East 545 627 39,000  Level FlightAware ADS-B
Thu 10:51:34 PM 41.6457 -102.9790 103° East 540 621 39,000  Level FlightAware ADS-B
Thu 10:51:50 PM 41.6367 -102.9280 98° East 532 612 39,000  Level FlightAware ADS-B
Thu 10:52:10 PM 41.6298 -102.8630 93° East 523 602 39,000  Level FlightAware ADS-B
Thu 10:52:41 PM 41.6257 -102.7660 93° East 520 598 39,000  Level FlightAware ADS-B
Thu 10:53:17 PM 41.6212 -102.6500 93° East 521 600 39,000  Level FlightAware ADS-B
Thu 10:53:47 PM 41.6171 -102.5530 93° East 523 602 39,000  Level FlightAware ADS-B
Thu 10:54:26 PM 41.6118 -102.4280 93° East 523 602 39,000  Level FlightAware ADS-B
Thu 10:55:05 PM 41.6064 -102.3020 93° East 523 602 39,000  Level FlightAware ADS-B
Thu 10:56:03 PM 41.5982 -102.1170 93° East 518 596 39,000  Level FlightAware ADS-B
Thu 10:56:56 PM 41.5905 -101.9490 94° East 516 594 39,000  Level FlightAware ADS-B
Thu 10:57:43 PM 41.5835 -101.8010 94° East 511 588 39,000  Level FlightAware ADS-B
Thu 10:58:14 PM 41.5789 -101.7050 94° East 508 585 39,000  Level FlightAware ADS-B
Thu 10:58:47 PM 41.5739 -101.6010 94° East 509 586 39,000  Level FlightAware ADS-B
Thu 10:59:17 PM 41.5691 -101.5060 94° East 509 586 39,000  Level FlightAware ADS-B
Thu 10:59:48 PM 41.5643 -101.4110 94° East 510 587 39,000  Level FlightAware ADS-B
Thu 11:00:18 PM 41.5594 -101.3170 94° East 511 588 39,000  Level FlightAware ADS-B
Thu 11:00:51 PM 41.5540 -101.2140 94° East 512 589 39,000  Level FlightAware ADS-B
Thu 11:01:24 PM 41.5484 -101.1090 95° East 514 592 39,000  Level FlightAware ADS-B
Thu 11:02:21 PM 41.5392 -100.9575 92° East 516 594 39,000  Level Denver Center
Thu 11:03:22 PM 41.5342 -100.7692 65° Northeast 510 587 39,000 50 Level Denver Center
Thu 11:04:22 PM 41.5944 -100.5972 59° Northeast 464 534 39,100 350 Climbing Denver Center
Thu 11:05:22 PM 41.6619 -100.4492 57° Northeast 469 540 39,700 500 Climbing Denver Center
Thu 11:06:22 PM 41.7333 -100.3006 58° Northeast 469 540 40,100 400 Climbing Denver Center
Thu 11:07:22 PM 41.7950 -100.1667 57° Northeast 474 545 40,500 256 Climbing Denver Center
Thu 11:09:53 PM 41.9761 -99.7833 58° Northeast 476 548 41,000 143 Climbing Minneapolis Center
Thu 11:10:52 PM 42.0453 -99.6339 58° Northeast 476 548 41,000  Level Minneapolis Center
Thu 11:14:05 PM 42.2722 -99.1381 59° Northeast 484 557 41,000  Level Minneapolis Center
Thu 11:15:04 PM 42.3425 -98.9817 74° East 479 551 41,000  Level Minneapolis Center
Thu 11:16:04 PM 42.3806 -98.8025 120° Southeast 479 551 41,000  Level Minneapolis Center
Thu 11:17:04 PM 42.3111 -98.6422 157° South 458 527 41,000  Level Minneapolis Center
Thu 11:18:05 PM 42.1672 -98.5597 150° Southeast 429 494 41,000  Level Minneapolis Center
Thu 11:19:04 PM 42.0406 -98.4625 103° East 466 536 41,000  Level Minneapolis Center
Thu 11:20:05 PM 42.0092 -98.2756 92° East 472 543 41,000  Level Minneapolis Center
Thu 11:22:05 PM 41.9986 -97.8867 90° East 496 571 41,000  Level Minneapolis Center
Thu 11:23:04 PM 41.9978 -97.6942 90° East 507 583 41,000  Level Minneapolis Center
Thu 11:24:04 PM 41.9969 -97.4986 91° East 513 590 41,000  Level Minneapolis Center
Thu 11:25:04 PM 41.9936 -97.3003 91° East 524 603 41,000  Level Minneapolis Center
Thu 11:26:05 PM 41.9900 -97.1075 91° East 524 603 41,000  Level Minneapolis Center
Thu 11:27:04 PM 41.9881 -96.9119 92° East 519 597 41,000  Level Minneapolis Center
Thu 11:28:05 PM 41.9836 -96.7164 91° East 519 597 41,000  Level Minneapolis Center
Thu 11:29:04 PM 41.9811 -96.5153 91° East 519 597 41,000  Level Minneapolis Center
Thu 11:30:04 PM 41.9781 -96.3228 91° East 519 597 41,000  Level Minneapolis Center
Thu 11:31:05 PM 41.9747 -96.1217 91° East 526 605 41,000  Level Minneapolis Center
Thu 11:32:04 PM 41.9725 -95.9458 92° East 526 605 41,000  Level Minneapolis Center
Thu 11:33:04 PM 41.9667 -95.7478 92° East 532 612 41,000  Level Minneapolis Center
Thu 11:34:04 PM 41.9622 -95.5522 93° East 532 612 41,000  Level Minneapolis Center
Thu 11:35:04 PM 41.9553 -95.3542 92° East 532 612 41,000  Level Minneapolis Center
Thu 11:36:04 PM 41.9503 -95.1589 94° East 532 612 41,000  Level Minneapolis Center
Thu 11:37:04 PM 41.9408 -94.9578 91° East 532 612 41,000  Level Minneapolis Center
Thu 11:38:04 PM 41.9369 -94.7600 94° East 537 618 41,000  Level Minneapolis Center
Thu 11:39:04 PM 41.9267 -94.5644 92° East 531 611 41,000  Level Minneapolis Center
Thu 11:40:04 PM 41.9222 -94.3694 94° East 531 611 41,000  Level Minneapolis Center
Thu 11:42:19 PM 41.8989 -93.9228 93° East 524 603 41,000  Level Chicago Center
Thu 11:43:19 PM 41.8919 -93.7269 93° East 523 602 41,000  Level Chicago Center
Thu 11:44:19 PM 41.8847 -93.5283 93° East 523 602 41,000  Level Chicago Center
Thu 11:45:19 PM 41.8772 -93.3325 95° East 528 608 41,000  Level Chicago Center
Thu 11:46:19 PM 41.8631 -93.1336 93° East 528 608 41,000  Level Chicago Center
Thu 11:47:19 PM 41.8547 -92.9325 93° East 528 608 41,000  Level Chicago Center
Thu 11:48:19 PM 41.8481 -92.7425 94° East 528 608 41,000  Level Chicago Center
Thu 11:49:20 PM 41.8372 -92.5439 94° East 528 608 41,000  Level Chicago Center
Thu 11:50:19 PM 41.8258 -92.3483 94° East 523 602 41,000  Level Chicago Center
Thu 11:51:19 PM 41.8142 -92.1500 94° East 523 602 41,000  Level Chicago Center
Thu 11:52:19 PM 41.8022 -91.9489 94° East 528 608 41,000  Level Chicago Center
Thu 11:53:19 PM 41.7900 -91.7311 94° East 528 608 41,000  Level Chicago Center
Thu 11:54:19 PM 41.7794 -91.5331 95° East 533 613 41,000  Level Chicago Center
Thu 11:55:19 PM 41.7664 -91.3375 94° East 528 608 41,000  Level Chicago Center
Thu 11:56:19 PM 41.7550 -91.1397 95° East 534 615 41,000  Level Chicago Center
Thu 11:57:19 PM 41.7414 -90.9417 74° East 534 615 41,000  Level Chicago Center
Thu 11:58:19 PM 41.7769 -90.7728 360° North 479 551 41,000  Level Chicago Center
Thu 11:59:19 PM 41.8872 -90.7722 278° West 457 526 41,000  Level Chicago Center
Fri 12:00:19 AM 41.9022 -90.9094 263° West 423 487 41,000  Level Chicago Center
Fri 12:01:19 AM 41.8897 -91.0542 288° West 445 512 41,000  Level Chicago Center
Fri 12:02:19 AM 41.9250 -91.1975 288° West 397 457 41,000  Level Chicago Center
Fri 12:03:19 AM 41.9600 -91.3436 287° West 407 468 41,000  Level Chicago Center
Fri 12:04:19 AM 41.9950 -91.4956 288° West 422 486 41,000  Level Chicago Center
Fri 12:05:19 AM 42.0317 -91.6478 287° West 430 495 41,000  Level Chicago Center
Fri 12:06:19 AM 42.0681 -91.8058 287° West 436 502 41,000  Level Chicago Center
Fri 12:07:19 AM 42.1042 -91.9639 288° West 441 507 41,000  Level Chicago Center
Fri 12:08:19 AM 42.1422 -92.1194 286° West 441 507 41,000  Level Chicago Center
Fri 12:09:19 AM 42.1739 -92.2722 287° West 441 507 41,000  Level Chicago Center
Fri 12:10:19 AM 42.2092 -92.4308 287° West 441 507 41,000  Level Chicago Center
Fri 12:12:04 AM 42.2694 -92.6964 286° West 459 528 41,000  Level Minneapolis Center
Fri 12:13:04 AM 42.3036 -92.8556 286° West 451 519 41,000  Level Minneapolis Center
Fri 12:14:04 AM 42.3397 -93.0319 287° West 451 519 41,000  Level Minneapolis Center
Fri 12:15:04 AM 42.3756 -93.1889 285° West 446 513 41,000  Level Minneapolis Center
Fri 12:16:04 AM 42.4069 -93.3433 287° West 439 505 41,000  Level Minneapolis Center
Fri 12:17:04 AM 42.4425 -93.5006 285° West 439 505 41,000  Level Minneapolis Center
Fri 12:18:04 AM 42.4736 -93.6553 286° West 434 499 41,000  Level Minneapolis Center
Fri 12:19:04 AM 42.5064 -93.8131 286° West 434 499 41,000  Level Minneapolis Center
Fri 12:20:04 AM 42.5411 -93.9736 286° West 439 505 41,000  Level Minneapolis Center
Fri 12:21:04 AM 42.5736 -94.1289 286° West 439 505 41,000  Level Minneapolis Center
Fri 12:22:04 AM 42.6058 -94.2869 289° West 434 499 41,000  Level Minneapolis Center
Fri 12:23:04 AM 42.6461 -94.4428 290° West 434 499 41,000  Level Minneapolis Center
Fri 12:24:04 AM 42.6883 -94.5986 290° West 434 499 41,000  Level Minneapolis Center
Fri 12:25:04 AM 42.7283 -94.7489 289° West 439 505 41,000  Level Minneapolis Center
Fri 12:26:04 AM 42.7639 -94.8883 289° West 434 499 41,000  Level Minneapolis Center
Fri 12:27:04 AM 42.8033 -95.0447 289° West 434 499 41,000  Level Minneapolis Center
Fri 12:28:04 AM 42.8428 -95.1983 289° West 429 494 41,000  Level Minneapolis Center
Fri 12:29:04 AM 42.8858 -95.3697 289° West 429 494 41,000  Level Minneapolis Center
Fri 12:30:05 AM 42.9244 -95.5267 289° West 429 494 41,000  Level Minneapolis Center
Fri 12:31:04 AM 42.9631 -95.6811 288° West 434 499 41,000  Level Minneapolis Center
Fri 12:32:04 AM 42.9994 -95.8386 288° West 434 499 41,000  Level Minneapolis Center
Fri 12:33:04 AM 43.0375 -95.9961 289° West 434 499 41,000  Level Minneapolis Center
Fri 12:34:04 AM 43.0736 -96.1397 288° West 434 499 41,000  Level Minneapolis Center
Fri 12:35:04 AM 43.1094 -96.2950 288° West 434 499 41,000  Level Minneapolis Center
Fri 12:36:04 AM 43.1467 -96.4561 287° West 434 499 41,000  Level Minneapolis Center
Fri 12:37:04 AM 43.1839 -96.6200 289° West 440 506 41,000  Level Minneapolis Center
Fri 12:38:04 AM 43.2231 -96.7789 287° West 440 506 41,000  Level Minneapolis Center
Fri 12:39:04 AM 43.2614 -96.9492 288° West 440 506 41,000  Level Minneapolis Center
Fri 12:40:04 AM 43.2981 -97.1081 287° West 440 506 41,000  Level Minneapolis Center
Fri 12:41:04 AM 43.3342 -97.2672 287° West 440 506 41,000  Level Minneapolis Center
Fri 12:42:04 AM 43.3703 -97.4267 288° West 440 506 41,000  Level Minneapolis Center
Fri 12:43:04 AM 43.4083 -97.5864 286° West 440 506 41,000  Level Minneapolis Center
Fri 12:44:04 AM 43.4419 -97.7433 286° West 440 506 41,000  Level Minneapolis Center
Fri 12:45:04 AM 43.4717 -97.8856 293° West 440 506 41,000  Level Minneapolis Center
Fri 12:46:04 AM 43.5194 -98.0411 305° West 440 506 41,000  Level Minneapolis Center
Fri 12:47:04 AM 43.5869 -98.1725 307° West 425 489 41,000  Level Minneapolis Center
Fri 12:48:04 AM 43.6564 -98.3014 304° West 431 496 41,000  Level Minneapolis Center
Fri 12:49:04 AM 43.7233 -98.4364 304° West 431 496 41,000  Level Minneapolis Center
Fri 12:50:04 AM 43.7958 -98.5836 307° West 431 496 41,000  Level Minneapolis Center
Fri 12:51:04 AM 43.8669 -98.7136 304° West 431 496 41,000  Level Minneapolis Center
Fri 12:52:04 AM 43.9314 -98.8464 305° West 426 490 41,000  Level Minneapolis Center
Fri 12:53:04 AM 43.9981 -98.9797 304° West 426 490 41,000  Level Minneapolis Center
Fri 12:54:05 AM 44.0622 -99.1103 305° West 420 483 41,000  Level Minneapolis Center
Fri 12:55:04 AM 44.1283 -99.2442 305° West 420 483 41,000  Level Minneapolis Center
Fri 12:56:04 AM 44.1944 -99.3753 304° West 415 478 41,000  Level Minneapolis Center
Fri 12:57:04 AM 44.2544 -99.5006 305° West 409 471 41,000  Level Minneapolis Center
Fri 12:58:04 AM 44.3147 -99.6200 297° West 396 456 41,000  Level Minneapolis Center
Fri 12:59:04 AM 44.3617 -99.7503 303° West 384 442 41,000  Level Minneapolis Center
Fri 01:00:04 AM 44.4175 -99.8697 302° West 377 434 41,000  Level Minneapolis Center
Fri 01:01:04 AM 44.4728 -99.9925 228° Southwest 377 434 41,000  Level Minneapolis Center
Fri 01:02:04 AM 44.3972 -100.1092 158° South 313 360 41,000  Level Minneapolis Center
Fri 01:03:04 AM 44.2681 -100.0361 144° Southeast 304 350 41,000  Level Minneapolis Center
Fri 01:04:04 AM 44.1497 -99.9153 149° Southeast 400 460 41,000  Level Minneapolis Center
Fri 01:05:04 AM 44.0203 -99.8083 149° Southeast 474 545 41,000  Level Minneapolis Center
Fri 01:06:04 AM 43.8869 -99.6958 149° Southeast 525 604 41,000  Level Minneapolis Center
Fri 01:07:04 AM 43.7533 -99.5864 150° Southeast 548 631 41,000  Level Minneapolis Center
Fri 01:08:04 AM 43.6197 -99.4778 152° Southeast 555 639 41,000  Level Minneapolis Center
Fri 01:09:04 AM 43.4853 -99.3781 151° Southeast 561 646 41,000  Level Minneapolis Center
Fri 01:10:04 AM 43.3489 -99.2731 151° Southeast 561 646 41,000  Level Minneapolis Center
Fri 01:11:04 AM 43.2125 -99.1711 153° Southeast 561 646 41,000  Level Minneapolis Center
Fri 01:12:04 AM 43.0917 -99.0883 153° Southeast 561 646 41,000  Level Minneapolis Center
Fri 01:13:04 AM 42.9528 -98.9900 158° South 561 646 41,000  Level Minneapolis Center
Fri 01:14:04 AM 42.8108 -98.9119 160° South 561 646 41,000  Level Minneapolis Center
Fri 01:15:04 AM 42.6767 -98.8458 162° South 538 619 41,000  Level Minneapolis Center
Fri 01:16:04 AM 42.5458 -98.7892 129° Southeast 512 589 41,000  Level Minneapolis Center
Fri 01:17:04 AM 42.4608 -98.6494 55° Northeast 470 541 41,000  Level Minneapolis Center
Fri 01:18:04 AM 42.5275 -98.5197 25° Northeast 334 384 41,000  Level Minneapolis Center
Fri 01:19:04 AM 42.6369 -98.4500 20° North 291 335 41,000  Level Minneapolis Center
Fri 01:20:04 AM 42.7519 -98.3919 21° North 367 422 41,000  Level Minneapolis Center
Fri 01:21:04 AM 42.8694 -98.3308 24° Northeast 396 456 41,000  Level Minneapolis Center
Fri 01:22:04 AM 42.9828 -98.2606 20° North 429 494 41,000  Level Minneapolis Center
Fri 01:23:04 AM 43.0894 -98.2067 20° North 437 503 41,000  Level Minneapolis Center
Fri 01:24:04 AM 43.2067 -98.1478 20° North 449 517 41,000  Level Minneapolis Center
Fri 01:25:04 AM 43.3281 -98.0861 22° Northeast 449 517 41,000  Level Minneapolis Center
Fri 01:26:04 AM 43.4431 -98.0236 21° North 443 510 41,000  Level Minneapolis Center
Fri 01:27:04 AM 43.5581 -97.9639 21° North 443 510 41,000  Level Minneapolis Center
Fri 01:28:04 AM 43.6772 -97.9014 20° North 443 510 41,000  Level Minneapolis Center
Fri 01:29:04 AM 43.8069 -97.8364 21° North 443 510 41,000  Level Minneapolis Center
Fri 01:30:04 AM 43.9264 -97.7733 19° North 443 510 41,000  Level Minneapolis Center
Fri 01:31:04 AM 44.0453 -97.7156 22° Northeast 443 510 41,000  Level Minneapolis Center
Fri 01:32:04 AM 44.1603 -97.6517 22° Northeast 448 516 41,000  Level Minneapolis Center
Fri 01:33:04 AM 44.2817 -97.5822 22° Northeast 454 522 41,000  Level Minneapolis Center
Fri 01:34:04 AM 44.3881 -97.5231 25° Northeast 454 522 41,000  Level Minneapolis Center
Fri 01:35:04 AM 44.5075 -97.4442 24° Northeast 459 528 41,000  Level Minneapolis Center
Fri 01:36:04 AM 44.6292 -97.3681 25° Northeast 465 535 41,000  Level Minneapolis Center
Fri 01:37:04 AM 44.7483 -97.2914 24° Northeast 465 535 41,000  Level Minneapolis Center
Fri 01:38:04 AM 44.8656 -97.2175 19° North 470 541 41,000  Level Minneapolis Center
Fri 01:39:04 AM 45.0011 -97.1500 357° North 470 541 41,000  Level Minneapolis Center
Fri 01:40:04 AM 45.1261 -97.1583 355° North 446 513 41,000  Level Minneapolis Center
Fri 01:41:04 AM 45.2506 -97.1753 355° North 446 513 41,000  Level Minneapolis Center
Fri 01:42:04 AM 45.3792 -97.1897 343° North 446 513 41,000  Level Minneapolis Center
Fri 01:43:04 AM 45.4983 -97.2422 340° North 446 513 41,000  Level Minneapolis Center
Fri 01:44:04 AM 45.6131 -97.3006 340° North 441 507 41,000  Level Minneapolis Center
Fri 01:45:04 AM 45.7156 -97.3553 342° North 441 507 41,000  Level Minneapolis Center
Fri 01:46:04 AM 45.8325 -97.4083 340° North 441 507 41,000  Level Minneapolis Center
Fri 01:47:04 AM 45.9594 -97.4742 340° North 436 502 41,000  Level Minneapolis Center
Fri 01:48:04 AM 46.0719 -97.5333 340° North 431 496 41,000  Level Minneapolis Center
Fri 01:49:04 AM 46.1886 -97.5931 342° North 431 496 41,000  Level Minneapolis Center
Fri 01:50:04 AM 46.3053 -97.6469 341° North 436 502 41,000  Level Minneapolis Center
Fri 01:51:04 AM 46.4200 -97.7039 339° North 436 502 41,000  Level Minneapolis Center
Fri 01:52:04 AM 46.5364 -97.7675 342° North 436 502 41,000  Level Minneapolis Center
Fri 01:53:04 AM 46.6511 -97.8219 340° North 436 502 41,000  Level Minneapolis Center
Fri 01:54:04 AM 46.7675 -97.8831 340° North 436 502 41,000  Level Minneapolis Center
Fri 01:55:04 AM 46.8839 -97.9442 339° North 436 502 41,000  Level Minneapolis Center
Fri 01:56:04 AM 46.9942 -98.0053 329° Northwest 436 502 41,000  Level Minneapolis Center
Fri 01:57:04 AM 47.0967 -98.0964 326° Northwest 431 496 41,000  Level Minneapolis Center
Fri 01:58:04 AM 47.1969 -98.1969 325° Northwest 426 490 41,000  Level Minneapolis Center
Fri 01:59:04 AM 47.2928 -98.2972 327° Northwest 426 490 41,000  Level Minneapolis Center
Fri 02:00:04 AM 47.3947 -98.3956 327° Northwest 426 490 41,000  Level Minneapolis Center
Fri 02:01:04 AM 47.4828 -98.4808 325° Northwest 426 490 41,000  Level Minneapolis Center
Fri 02:02:04 AM 47.5825 -98.5825 335° Northwest 426 490 41,000  Level Minneapolis Center
Fri 02:03:04 AM 47.6897 -98.6581 24° Northeast 420 483 41,000  Level Minneapolis Center
Fri 02:04:04 AM 47.8056 -98.5828 51° Northeast 398 458 41,000  Level Minneapolis Center
Fri 02:05:04 AM 47.8894 -98.4300 48° Northeast 406 467 41,000  Level Minneapolis Center
Fri 02:06:04 AM 47.9817 -98.2742 49° Northeast 441 507 41,000  Level Minneapolis Center
Fri 02:08:04 AM 48.1586 -97.9636 49° Northeast 488 562 41,000  Level Minneapolis Center
Fri 02:09:04 AM 48.2481 -97.8092 49° Northeast 488 562 41,000  Level Minneapolis Center
Fri 02:10:04 AM 48.3392 -97.6514 49° Northeast 488 562 41,000  Level Minneapolis Center
Fri 02:11:04 AM 48.4281 -97.4958 49° Northeast 488 562 41,000  Level Minneapolis Center
Fri 02:12:04 AM 48.5167 -97.3431 57° Northeast 483 556 41,000  Level Minneapolis Center
Fri 02:13:04 AM 48.5911 -97.1667 62° Northeast 483 556 41,000  Level Minneapolis Center
Fri 02:14:04 AM 48.6550 -96.9858 44° Northeast 488 562 41,000  Level Minneapolis Center
Fri 02:15:04 AM 48.7400 -96.8594 320° Northwest 477 549 41,000  Level Minneapolis Center
Fri 02:16:04 AM 48.8122 -96.9525 252° West 290 334 41,000  Level Minneapolis Center
Fri 02:17:04 AM 48.7781 -97.1108 227° Southwest 213 245 41,000  Level Minneapolis Center
Fri 02:18:04 AM 48.6947 -97.2464 238° Southwest 298 343 41,000  Level Minneapolis Center
Fri 02:19:04 AM 48.6269 -97.4078 236° Southwest 370 426 41,000  Level Minneapolis Center
Fri 02:20:04 AM 48.5547 -97.5686 235° Southwest 438 504 41,000  Level Minneapolis Center
Fri 02:21:04 AM 48.4778 -97.7347 236° Southwest 472 543 41,000  Level Minneapolis Center
Fri 02:23:04 AM 48.3275 -98.0689 235° Southwest 489 563 41,000  Level Minneapolis Center
Fri 02:24:04 AM 48.2500 -98.2367 236° Southwest 489 563 41,000  Level Minneapolis Center
Fri 02:25:04 AM 48.1742 -98.4042 234° Southwest 495 570 41,000  Level Minneapolis Center
Fri 02:26:04 AM 48.0983 -98.5619 236° Southwest 485 558 41,000  Level Minneapolis Center
Fri 02:27:04 AM 48.0267 -98.7194 236° Southwest 480 552 41,000  Level Minneapolis Center
Fri 02:28:04 AM 47.9547 -98.8767 238° Southwest 469 540 41,000  Level Minneapolis Center
Fri 02:29:04 AM 47.8867 -99.0369 240° Southwest 469 540 41,000  Level Minneapolis Center
Fri 02:30:04 AM 47.8247 -99.1975 240° Southwest 455 524 41,000  Level Minneapolis Center
Fri 02:31:04 AM 47.7578 -99.3664 240° Southwest 455 524 41,000  Level Minneapolis Center
Fri 02:32:04 AM 47.6928 -99.5353 238° Southwest 466 536 41,000  Level Minneapolis Center
Fri 02:33:04 AM 47.6208 -99.7089 239° Southwest 480 552 41,000  Level Minneapolis Center
Fri 02:34:04 AM 47.5508 -99.8822 235° Southwest 489 563 41,000  Level Minneapolis Center
Fri 02:35:04 AM 47.4747 -100.0453 224° Southwest 489 563 41,000  Level Minneapolis Center
Fri 02:36:04 AM 47.3769 -100.1867 222° Southwest 494 568 41,000  Level Minneapolis Center
Fri 02:37:04 AM 47.2728 -100.3236 224° Southwest 500 575 41,000  Level Minneapolis Center
Fri 02:38:04 AM 47.1725 -100.4639 222° Southwest 505 581 41,000  Level Minneapolis Center
Fri 02:39:04 AM 47.0681 -100.5997 223° Southwest 505 581 41,000  Level Minneapolis Center
Fri 02:40:04 AM 46.9653 -100.7386 223° Southwest 510 587 41,000  Level Minneapolis Center
Fri 02:41:04 AM 46.8625 -100.8767 223° Southwest 510 587 41,000  Level Minneapolis Center
Fri 02:42:04 AM 46.7594 -101.0144 221° Southwest 510 587 41,000  Level Minneapolis Center
Fri 02:43:04 AM 46.6589 -101.1428 223° Southwest 503 579 41,000  Level Minneapolis Center
Fri 02:44:04 AM 46.5553 -101.2856 222° Southwest 503 579 41,000  Level Minneapolis Center
Fri 02:45:04 AM 46.4497 -101.4214 223° Southwest 508 585 41,000  Level Minneapolis Center
Fri 02:46:04 AM 46.3483 -101.5572 221° Southwest 514 592 41,000  Level Minneapolis Center
Fri 02:47:04 AM 46.2378 -101.6975 223° Southwest 519 597 41,000  Level Minneapolis Center
Fri 02:48:04 AM 46.1406 -101.8269 222° Southwest 503 579 41,000  Level Minneapolis Center
Fri 02:49:04 AM 46.0342 -101.9636 219° Southwest 508 585 41,000  Level Minneapolis Center
Fri 02:50:04 AM 45.9267 -102.0878 220° Southwest 508 585 41,000  Level Minneapolis Center
Fri 02:51:04 AM 45.8067 -102.2333 220° Southwest 508 585 41,000  Level Minneapolis Center
Fri 02:52:04 AM 45.6983 -102.3653 220° Southwest 508 585 41,000  Level Minneapolis Center
Fri 02:53:04 AM 45.5875 -102.4961 220° Southwest 508 585 41,000  Level Minneapolis Center
Fri 02:54:04 AM 45.5436 -102.5486 360° North 508 585 41,000  Level Minneapolis Center
Fri 02:55:04 AM 45.5436 -102.5486 360° North 508 585 41,000  Level Minneapolis Center
Fri 02:56:04 AM 45.5436 -102.5486 360° North 508 585 41,000  Level Minneapolis Center
Fri 02:57:04 AM 45.5436 -102.5486 216° Southwest 508 585 41,000  Level Minneapolis Center
Fri 02:58:09 AM 45.0189 -103.0892 218° Southwest 513 590 41,000  Level Denver Center
Fri 02:59:10 AM 44.9058 -103.2125 219° Southwest 513 590 41,000  Level Denver Center
Fri 03:00:10 AM 44.7989 -103.3353 216° Southwest 513 590 41,000  Level Denver Center
Fri 03:01:09 AM 44.6814 -103.4550 215° Southwest 513 590 41,000  Level Denver Center
Fri 03:02:10 AM 44.5675 -103.5686 218° Southwest 513 590 41,000  Level Denver Center
Fri 03:03:10 AM 44.4642 -103.6811 217° Southwest 520 598 41,000  Level Denver Center
Fri 03:04:10 AM 44.3503 -103.8022 217° Southwest 520 598 41,000  Level Denver Center
Fri 03:05:10 AM 44.2242 -103.9353 218° Southwest 520 598 41,000  Level Denver Center
Fri 03:06:10 AM 44.1122 -104.0556 216° Southwest 525 604 41,000  Level Denver Center
Fri 03:07:10 AM 44.0061 -104.1633 217° Southwest 525 604 41,000  Level Denver Center
Fri 03:08:09 AM 43.8917 -104.2828 216° Southwest 525 604 41,000  Level Denver Center
Fri 03:09:10 AM 43.7650 -104.4111 217° Southwest 525 604 41,000  Level Denver Center
Fri 03:10:10 AM 43.6522 -104.5294 217° Southwest 520 598 41,000 150 Level Denver Center
Fri 03:11:10 AM 43.5519 -104.6328 217° Southwest 513 590 41,300 500 Climbing Denver Center
Fri 03:12:10 AM 43.4392 -104.7503 216° Southwest 513 590 42,000 425 Climbing Denver Center
Fri 03:15:10 AM 43.1000 -105.0894 217° Southwest 513 590 43,000 250 Climbing Denver Center
Fri 03:16:10 AM 42.9742 -105.2169 216° Southwest 513 590 43,000  Level Denver Center
Fri 03:17:10 AM 42.8586 -105.3297 211° Southwest 513 590 43,000  Level Denver Center
Fri 03:18:09 AM 42.7450 -105.4222 206° Southwest 519 597 43,000  Level Denver Center
Fri 03:19:10 AM 42.6125 -105.5117 205° Southwest 529 609 43,000  Level Denver Center
Fri 03:20:10 AM 42.4694 -105.6039 207° Southwest 529 609 43,000  Level Denver Center
Fri 03:21:10 AM 42.3386 -105.6928 205° Southwest 529 609 43,000  Level Denver Center
Fri 03:22:10 AM 42.2183 -105.7672 206° Southwest 529 609 43,000  Level Denver Center
Fri 03:23:10 AM 42.0708 -105.8639 206° Southwest 529 609 43,000  Level Denver Center
Fri 03:24:10 AM 41.9358 -105.9517 202° Southwest 529 609 43,000  Level Denver Center
Fri 03:25:10 AM 41.7986 -106.0250 195° South 529 609 43,000  Level Denver Center
Fri 03:26:10 AM 41.6675 -106.0733 194° South 541 623 43,000  Level Denver Center
Fri 03:27:10 AM 41.5069 -106.1269 195° South 541 623 43,000  Level Denver Center
Fri 03:28:10 AM 41.3656 -106.1775 194° South 547 629 43,000  Level Denver Center
Fri 03:29:10 AM 41.2383 -106.2194 195° South 532 612 43,000  Level Denver Center
Fri 03:30:10 AM 41.0989 -106.2694 191° South 526 605 43,000  Level Denver Center
Fri 03:31:10 AM 40.9383 -106.3111 177° South 537 618 43,000  Level Denver Center
Fri 03:32:10 AM 40.7903 -106.3006 177° South 545 627 43,000  Level Denver Center
Fri 03:33:10 AM 40.6569 -106.2900 176° South 545 627 43,000  Level Denver Center
Fri 03:34:10 AM 40.4922 -106.2742 163° South 545 627 43,000  Level Denver Center
Fri 03:35:10 AM 40.3461 -106.2144 156° South 545 627 43,000  Level Denver Center
Fri 03:36:10 AM 40.2167 -106.1389 154° Southeast 547 629 43,000  Level Denver Center
Fri 03:37:10 AM 40.0767 -106.0500 135° Southeast 554 638 43,000  Level Denver Center
Fri 03:38:10 AM 39.9697 -105.9097 111° Southeast 560 644 43,000  Level Denver Center
Fri 03:39:10 AM 39.9164 -105.7261 111° Southeast 536 617 43,000  Level Denver Center
Fri 03:40:10 AM 39.8631 -105.5428 111° Southeast 541 623 43,000  Level Denver Center
Fri 03:41:10 AM 39.8072 -105.3542 92° East 551 634 43,000  Level Denver Center
Fri 03:42:10 AM 39.8008 -105.1489 76° East 532 612 43,000  Level Denver Center
Fri 03:43:10 AM 39.8342 -104.9697 76° East 505 581 43,000  Level Denver Center
Fri 03:44:10 AM 39.8672 -104.7931 78° East 505 581 43,000  Level Denver Center
Fri 03:45:10 AM 39.8956 -104.6139 76° East 505 581 43,000  Level Denver Center
Fri 03:46:10 AM 39.9264 -104.4533 61° Northeast 510 587 43,000  Level Denver Center
Fri 03:51:25 AM 40.2590 -103.6570 46° Northeast 459 528 43,000  Level FlightAware ADS-B
Fri 03:51:55 AM 40.3039 -103.5970 45° Northeast 460 529 43,000  Level FlightAware ADS-B
Fri 03:52:27 AM 40.3504 -103.5350 45° Northeast 462 532 43,000  Level FlightAware ADS-B
Fri 03:52:57 AM 40.3954 -103.4750 46° Northeast 462 532 43,000  Level FlightAware ADS-B
Fri 03:53:27 AM 40.4402 -103.4150 46° Northeast 463 533 43,000  Level FlightAware ADS-B
Fri 03:53:57 AM 40.4854 -103.3540 46° Northeast 464 534 43,000  Level FlightAware ADS-B
Fri 03:54:27 AM 40.5307 -103.2930 46° Northeast 462 532 43,000  Level FlightAware ADS-B
Fri 03:54:58 AM 40.5753 -103.2330 46° Northeast 461 531 43,000  Level FlightAware ADS-B
Fri 03:55:28 AM 40.6201 -103.1720 46° Northeast 460 529 43,000  Level FlightAware ADS-B
Fri 03:55:58 AM 40.6653 -103.1110 46° Northeast 460 529 43,000  Level FlightAware ADS-B
Fri 03:56:29 AM 40.7103 -103.0500 46° Northeast 460 529 43,000  Level FlightAware ADS-B
Fri 03:56:59 AM 40.7550 -102.9890 46° Northeast 461 531 43,000  Level FlightAware ADS-B
Fri 03:57:31 AM 40.8018 -102.9260 35° Northeast 461 531 43,000  Level FlightAware ADS-B
Fri 03:57:48 AM 40.8306 -102.8990 12° North 431 496 43,000  Level FlightAware ADS-B
Fri 03:58:06 AM 40.8655 -102.8890 353° North 403 464 43,000  Level FlightAware ADS-B
Fri 03:58:23 AM 40.8943 -102.8940 330° Northwest 391 450 43,000  Level FlightAware ADS-B
Fri 03:58:39 AM 40.9206 -102.9140 307° West 387 445 43,000  Level FlightAware ADS-B
Fri 03:58:57 AM 40.9397 -102.9470 287° West 395 455 43,000  Level FlightAware ADS-B
Fri 03:59:19 AM 40.9518 -102.9980 274° West 409 471 43,000  Level FlightAware ADS-B
Fri 03:59:37 AM 40.9543 -103.0430 258° West 428 493 43,000  Level FlightAware ADS-B
Fri 03:59:54 AM 40.9466 -103.0890 239° Southwest 450 518 43,000  Level FlightAware ADS-B
Fri 04:00:27 AM 40.9112 -103.1680 237° Southwest 471 542 43,000  Level FlightAware ADS-B
Fri 04:00:57 AM 40.8754 -103.2420 237° Southwest 475 547 43,000  Level FlightAware ADS-B
Fri 04:01:28 AM 40.8382 -103.3180 237° Southwest 478 550 43,000  Level FlightAware ADS-B
Fri 04:01:58 AM 40.8018 -103.3910 237° Southwest 481 554 43,000  Level FlightAware ADS-B
Fri 04:02:28 AM 40.7651 -103.4650 237° Southwest 483 556 43,000  Level FlightAware ADS-B
Fri 04:02:59 AM 40.7273 -103.5420 237° Southwest 484 557 43,000  Level FlightAware ADS-B
Fri 04:03:29 AM 40.6901 -103.6170 237° Southwest 485 558 43,000  Level FlightAware ADS-B
Fri 04:04:00 AM 40.6535 -103.6910 237° Southwest 487 560 43,000  Level FlightAware ADS-B
Fri 04:04:30 AM 40.6164 -103.7660 237° Southwest 487 560 43,000  Level FlightAware ADS-B
Fri 04:04:58 AM 40.5823 -103.8350 237° Southwest 487 560 43,000  Level FlightAware ADS-B
Fri 04:05:13 AM 40.5639 -103.8720 237° Southwest 486 559 43,000  Level FlightAware ADS-B
Fri 04:05:39 AM 40.5308 -103.9380 246° West 485 558 43,000  Level FlightAware ADS-B
Fri 04:05:59 AM 40.5133 -103.9900 263° West 460 529 43,000  Level FlightAware ADS-B
Fri 04:06:18 AM 40.5085 -104.0400 279° West 440 506 43,000  Level FlightAware ADS-B
Fri 04:06:59 AM 40.5215 -104.1450 281° West 429 494 43,000  Level FlightAware ADS-B
Fri 04:07:29 AM 40.5326 -104.2220 281° West 429 494 43,000  Level FlightAware ADS-B
Fri 04:07:59 AM 40.5438 -104.2980 281° West 430 495 43,000  Level FlightAware ADS-B
Fri 04:08:29 AM 40.5550 -104.3760 281° West 428 493 43,000  Level FlightAware ADS-B
Fri 04:08:59 AM 40.5662 -104.4530 281° West 429 494 43,000  Level FlightAware ADS-B
Fri 04:09:30 AM 40.5774 -104.5310 281° West 430 495 43,000  Level FlightAware ADS-B
Fri 04:10:01 AM 40.5888 -104.6100 281° West 430 495 43,000  Level FlightAware ADS-B
Fri 04:10:31 AM 40.5999 -104.6880 281° West 429 494 43,000  Level FlightAware ADS-B
Fri 04:11:03 AM 40.6113 -104.7690 280° West 429 494 43,000  Level FlightAware ADS-B
Fri 04:11:33 AM 40.6222 -104.8470 281° West 430 495 43,000  Level FlightAware ADS-B
Fri 04:12:04 AM 40.6332 -104.9250 280° West 430 495 43,000  Level FlightAware ADS-B
Fri 04:12:34 AM 40.6442 -105.0040 281° West 430 495 43,000  Level FlightAware ADS-B
Fri 04:12:49 AM 40.6494 -105.0410 292° West 429 494 43,000  Level FlightAware ADS-B
Fri 04:13:07 AM 40.6625 -105.0840 311° West 412 474 43,000  Level FlightAware ADS-B
Fri 04:13:25 AM 40.6838 -105.1160 329° Northwest 404 465 43,000  Level FlightAware ADS-B
Fri 04:13:44 AM 40.7149 -105.1410 348° North 402 463 43,000  Level FlightAware ADS-B
Fri 04:14:01 AM 40.7462 -105.1500 North 408 470 43,000  Level FlightAware ADS-B
Fri 04:14:42 AM 40.8231 -105.1390 North 415 478 43,000  Level FlightAware ADS-B
Fri 04:15:12 AM 40.8802 -105.1300 North 414 476 43,000  Level FlightAware ADS-B
Fri 04:15:42 AM 40.9368 -105.1190 North 411 473 43,000  Level FlightAware ADS-B
Fri 04:16:13 AM 40.9951 -105.1090 North 410 472 43,000  Level FlightAware ADS-B
Fri 04:16:43 AM 41.0521 -105.0990 North 410 472 43,000  Level FlightAware ADS-B
Fri 04:17:14 AM 41.1100 -105.0890 North 410 472 43,000  Level FlightAware ADS-B
Fri 04:17:44 AM 41.1667 -105.0790 North 411 473 43,000  Level FlightAware ADS-B
Fri 04:18:14 AM 41.2239 -105.0690 North 411 473 43,000  Level FlightAware ADS-B
Fri 04:18:45 AM 41.2809 -105.0590 North 412 474 43,000  Level FlightAware ADS-B
Fri 04:19:15 AM 41.3390 -105.0480 North 413 475 43,000  Level FlightAware ADS-B
Fri 04:19:52 AM 41.4083 -105.0360 North 414 476 43,000  Level FlightAware ADS-B
Fri 04:20:22 AM 41.4655 -105.0260 North 414 476 43,000  Level FlightAware ADS-B
Fri 04:20:47 AM 41.5123 -105.0160 14° North 415 478 43,000  Level FlightAware ADS-B
Fri 04:21:03 AM 41.5415 -105.0060 17° North 418 481 43,000  Level FlightAware ADS-B
Fri 04:21:33 AM 41.5974 -104.9830 17° North 420 483 43,000  Level FlightAware ADS-B
Fri 04:22:03 AM 41.6538 -104.9600 17° North 420 483 43,000  Level FlightAware ADS-B
Fri 04:22:34 AM 41.7101 -104.9370 18° North 421 484 43,000  Level FlightAware ADS-B
Fri 04:23:04 AM 41.7666 -104.9130 17° North 421 484 43,000  Level FlightAware ADS-B
Fri 04:23:34 AM 41.8221 -104.8900 18° North 420 483 43,000  Level FlightAware ADS-B
Fri 04:24:04 AM 41.8775 -104.8660 17° North 418 481 43,000  Level FlightAware ADS-B
Fri 04:24:34 AM 41.9334 -104.8430 17° North 420 483 43,000  Level FlightAware ADS-B
Fri 04:25:05 AM 41.9905 -104.8200 18° North 421 484 43,000  Level FlightAware ADS-B
Fri 04:25:35 AM 42.0466 -104.7960 17° North 422 486 43,000  Level FlightAware ADS-B
Fri 04:26:06 AM 42.1034 -104.7720 17° North 425 489 43,000  Level FlightAware ADS-B
Fri 04:26:36 AM 42.1599 -104.7480 17° North 424 488 43,000  Level FlightAware ADS-B
Fri 04:27:02 AM 42.2094 -104.7270 20° North 425 489 43,000  Level FlightAware ADS-B
Fri 04:27:32 AM 42.2650 -104.7000 22° Northeast 428 493 43,000  Level FlightAware ADS-B
Fri 04:28:04 AM 42.3227 -104.6680 22° Northeast 430 495 43,000  Level FlightAware ADS-B
Fri 04:28:34 AM 42.3783 -104.6380 23° Northeast 431 496 43,000  Level FlightAware ADS-B
Fri 04:29:06 AM 42.4372 -104.6040 22° Northeast 432 497 43,000  Level FlightAware ADS-B
Fri 04:29:36 AM 42.4934 -104.5730 22° Northeast 433 498 43,000  Level FlightAware ADS-B
Fri 04:30:06 AM 42.5494 -104.5420 22° Northeast 434 499 43,000  Level FlightAware ADS-B
Fri 04:30:37 AM 42.6064 -104.5100 23° Northeast 434 499 43,000  Level FlightAware ADS-B
Fri 04:31:07 AM 42.6622 -104.4780 22° Northeast 435 501 43,000  Level FlightAware ADS-B
Fri 04:31:38 AM 42.7190 -104.4460 22° Northeast 436 502 43,000  Level FlightAware ADS-B
Fri 04:32:08 AM 42.7749 -104.4150 23° Northeast 436 502 43,000  Level FlightAware ADS-B
Fri 04:33:06 AM 42.8838 -104.3530 23° Northeast 438 504 43,000  Level FlightAware ADS-B
Fri 04:33:37 AM 42.9402 -104.3210 22° Northeast 439 505 43,000  Level FlightAware ADS-B
Fri 04:34:07 AM 42.9971 -104.2890 23° Northeast 439 505 43,000  Level FlightAware ADS-B
Fri 04:36:10 AM 43.2295 -104.1560 23° Northeast 442 509 43,000  Level FlightAware ADS-B
Fri 04:36:41 AM 43.2868 -104.1230 24° Northeast 441 507 43,000  Level FlightAware ADS-B
Fri 04:38:36 AM 43.5014 -103.9930 35° Northeast 447 514 43,000  Level FlightAware ADS-B
Fri 04:39:10 AM 43.5436 -103.9517 39° Northeast 435 501 43,000  Level Denver Center
Fri 04:40:10 AM 43.6533 -103.8294 39° Northeast 450 518 43,000  Level Denver Center
Fri 04:41:10 AM 43.7486 -103.7219 40° Northeast 450 518 43,000  Level Denver Center
Fri 04:42:10 AM 43.8358 -103.6203 39° Northeast 455 524 43,000  Level Denver Center
Fri 04:43:10 AM 43.9331 -103.5122 40° Northeast 455 524 43,000  Level Denver Center
Fri 04:44:10 AM 44.0403 -103.3886 40° Northeast 455 524 43,000  Level Denver Center
Fri 04:45:10 AM 44.1372 -103.2739 38° Northeast 455 524 43,000  Level Denver Center
Fri 04:46:10 AM 44.2142 -103.1889 40° Northeast 455 524 43,000  Level Denver Center
Fri 04:47:10 AM 44.3189 -103.0672 38° Northeast 450 518 43,000  Level Denver Center
Fri 04:48:10 AM 44.4197 -102.9569 41° Northeast 450 518 43,000  Level Denver Center
Fri 04:49:10 AM 44.5142 -102.8408 40° Northeast 455 524 43,000  Level Denver Center
Fri 04:51:28 AM 44.7500 -102.5647 40° Northeast 461 531 43,000  Level Minneapolis Center
Fri 04:52:28 AM 44.8450 -102.4508 40° Northeast 456 525 43,000  Level Minneapolis Center
Fri 04:53:28 AM 44.9464 -102.3317 41° Northeast 456 525 43,000  Level Minneapolis Center
Fri 04:54:28 AM 45.0436 -102.2114 39° Northeast 456 525 43,000  Level Minneapolis Center
Fri 04:55:28 AM 45.1447 -102.0942 41° Northeast 461 531 43,000  Level Minneapolis Center
Fri 04:56:28 AM 45.2414 -101.9761 41° Northeast 461 531 43,000  Level Minneapolis Center
Fri 04:57:28 AM 45.3428 -101.8522 41° Northeast 461 531 43,000  Level Minneapolis Center
Fri 04:58:28 AM 45.4417 -101.7306 40° Northeast 466 536 43,000  Level Minneapolis Center
Fri 04:59:28 AM 45.5422 -101.6089 41° Northeast 471 542 43,000  Level Minneapolis Center
Fri 05:00:28 AM 45.6433 -101.4839 40° Northeast 477 549 43,000  Level Minneapolis Center
Fri 05:01:28 AM 45.7439 -101.3611 41° Northeast 477 549 43,000  Level Minneapolis Center
Fri 05:02:28 AM 45.8442 -101.2381 42° Northeast 477 549 43,000  Level Minneapolis Center
Fri 05:03:28 AM 45.9428 -101.1114 41° Northeast 477 549 43,000  Level Minneapolis Center
Fri 05:04:28 AM 46.0453 -100.9847 41° Northeast 477 549 43,000  Level Minneapolis Center
Fri 05:05:28 AM 46.1386 -100.8656 41° Northeast 472 543 43,000  Level Minneapolis Center
Fri 05:06:28 AM 46.2389 -100.7378 42° Northeast 472 543 43,000  Level Minneapolis Center
Fri 05:07:28 AM 46.3414 -100.6036 40° Northeast 480 552 43,000  Level Minneapolis Center
Fri 05:08:28 AM 46.4431 -100.4781 41° Northeast 480 552 43,000  Level Minneapolis Center
Fri 05:09:28 AM 46.5314 -100.3656 42° Northeast 475 547 43,000  Level Minneapolis Center
Fri 05:10:28 AM 46.6333 -100.2303 40° Northeast 475 547 43,000  Level Minneapolis Center
Fri 05:11:28 AM 46.7369 -100.1036 43° Northeast 475 547 43,000  Level Minneapolis Center
Fri 05:12:28 AM 46.8342 -99.9728 43° Northeast 475 547 43,000  Level Minneapolis Center
Fri 05:13:28 AM 46.9314 -99.8414 41° Northeast 475 547 43,000  Level Minneapolis Center
Fri 05:14:52 AM 47.0706 -99.6625 44° Northeast 455 524 43,000  Level Minneapolis Center
Fri 05:15:52 AM 47.1653 -99.5300 42° Northeast 466 536 43,000  Level Minneapolis Center
Fri 05:16:52 AM 47.2639 -99.4003 52° Northeast 471 542 43,000  Level Minneapolis Center
Fri 05:17:52 AM 47.3447 -99.2467 97° East 471 542 43,000  Level Minneapolis Center
Fri 05:18:52 AM 47.3281 -99.0364 142° Southeast 461 531 43,000  Level Minneapolis Center
Fri 05:19:52 AM 47.2033 -98.8947 153° Southeast 436 502 43,000  Level Minneapolis Center
Fri 05:20:52 AM 47.0483 -98.7783 151° Southeast 486 559 43,000  Level Minneapolis Center
Fri 05:21:52 AM 46.9136 -98.6678 151° Southeast 519 597 43,000  Level Minneapolis Center
Fri 05:22:52 AM 46.7808 -98.5608 151° Southeast 538 619 43,000  Level Minneapolis Center
Fri 05:23:52 AM 46.6439 -98.4508 151° Southeast 554 638 43,000  Level Minneapolis Center
Fri 05:24:52 AM 46.5108 -98.3450 151° Southeast 560 644 43,000  Level Minneapolis Center
Fri 05:25:52 AM 46.3758 -98.2367 151° Southeast 555 639 43,000  Level Minneapolis Center
Fri 05:26:52 AM 46.2425 -98.1317 156° South 555 639 43,000  Level Minneapolis Center
Fri 05:27:52 AM 46.1044 -98.0419 163° South 545 627 43,000  Level Minneapolis Center
Fri 05:28:52 AM 45.9592 -97.9761 162° South 545 627 43,000  Level Minneapolis Center
Fri 05:29:52 AM 45.8158 -97.9108 162° South 540 621 43,000  Level Minneapolis Center
Fri 05:30:52 AM 45.6725 -97.8458 162° South 540 621 43,000  Level Minneapolis Center
Fri 05:31:52 AM 45.5311 -97.7811 161° South 540 621 43,000  Level Minneapolis Center
Fri 05:32:52 AM 45.3878 -97.7108 173° South 540 621 43,000  Level Minneapolis Center
Fri 05:33:52 AM 45.2408 -97.6850 179° South 528 608 43,000  Level Minneapolis Center
Fri 05:34:52 AM 45.0950 -97.6828 182° South 528 608 43,000  Level Minneapolis Center
Fri 05:35:52 AM 44.9675 -97.6881 204° Southwest 528 608 43,000  Level Minneapolis Center
Fri 05:36:52 AM 44.8394 -97.7692 206° Southwest 505 581 43,000  Level Minneapolis Center
Fri 05:37:52 AM 44.7150 -97.8564 205° Southwest 505 581 43,000  Level Minneapolis Center
Fri 05:38:52 AM 44.5911 -97.9372 207° Southwest 499 574 43,000  Level Minneapolis Center
Fri 05:39:52 AM 44.4686 -98.0236 205° Southwest 499 574 43,000  Level Minneapolis Center
Fri 05:40:52 AM 44.3400 -98.1092 205° Southwest 505 581 43,000  Level Minneapolis Center
Fri 05:41:52 AM 44.2114 -98.1917 207° Southwest 505 581 43,000  Level Minneapolis Center
Fri 05:42:52 AM 44.0889 -98.2769 207° Southwest 505 581 43,000  Level Minneapolis Center
Fri 05:43:52 AM 43.9533 -98.3725 211° Southwest 505 581 43,000  Level Minneapolis Center
Fri 05:44:52 AM 43.8344 -98.4717 211° Southwest 505 581 43,000  Level Minneapolis Center
Fri 05:45:52 AM 43.7153 -98.5708 212° Southwest 505 581 43,000  Level Minneapolis Center
Fri 05:46:52 AM 43.5958 -98.6722 210° Southwest 512 589 43,000  Level Minneapolis Center
Fri 05:47:52 AM 43.4744 -98.7700 216° Southwest 512 589 43,000  Level Minneapolis Center
Fri 05:48:52 AM 43.3583 -98.8853 225° Southwest 512 589 43,000  Level Minneapolis Center
Fri 05:49:52 AM 43.2644 -99.0136 225° Southwest 498 573 43,000  Level Minneapolis Center
Fri 05:53:10 AM 42.9469 -99.4472 227° Southwest 481 554 43,000  Level Denver Center
Fri 05:54:10 AM 42.8531 -99.5853 227° Southwest 481 554 43,000  Level Denver Center
Fri 05:55:10 AM 42.7608 -99.7197 226° Southwest 486 559 43,000  Level Denver Center
Fri 05:56:10 AM 42.6664 -99.8542 227° Southwest 486 559 43,000  Level Denver Center
Fri 05:57:10 AM 42.5756 -99.9850 237° Southwest 486 559 43,000  Level Denver Center
Fri 05:58:10 AM 42.5006 -100.1392 237° Southwest 492 566 43,000  Level Denver Center
Fri 05:59:10 AM 42.4275 -100.2900 236° Southwest 487 560 43,000  Level Denver Center
Fri 06:00:10 AM 42.3558 -100.4347 244° Southwest 482 555 43,000  Level Denver Center
Fri 06:05:31 AM 42.0506 -101.2670 270° West 431 496 43,000  Level FlightAware ADS-B
Fri 06:06:01 AM 42.0507 -101.3470 270° West 432 497 43,000  Level FlightAware ADS-B
Fri 06:06:31 AM 42.0508 -101.4290 270° West 434 499 43,000  Level FlightAware ADS-B
Fri 06:07:04 AM 42.0508 -101.5160 270° West 435 501 43,000  Level FlightAware ADS-B
Fri 06:07:34 AM 42.0507 -101.5990 270° West 435 501 43,000  Level FlightAware ADS-B
Fri 06:08:04 AM 42.0506 -101.6800 270° West 434 499 43,000  Level FlightAware ADS-B
Fri 06:08:35 AM 42.0504 -101.7610 270° West 433 498 43,000  Level FlightAware ADS-B
Fri 06:09:05 AM 42.0503 -101.8420 270° West 433 498 43,000  Level FlightAware ADS-B
Fri 06:09:35 AM 42.0500 -101.9230 270° West 434 499 43,000  Level FlightAware ADS-B
Fri 06:10:06 AM 42.0496 -102.0070 270° West 433 498 43,000  Level FlightAware ADS-B
Fri 06:10:37 AM 42.0492 -102.0890 270° West 432 497 43,000  Level FlightAware ADS-B
Fri 06:11:07 AM 42.0488 -102.1700 270° West 431 496 43,000  Level FlightAware ADS-B
Fri 06:11:37 AM 42.0483 -102.2510 269° West 431 496 43,000  Level FlightAware ADS-B
Fri 06:12:07 AM 42.0477 -102.3320 269° West 432 497 43,000  Level FlightAware ADS-B
Fri 06:12:38 AM 42.0471 -102.4130 269° West 432 497 43,000  Level FlightAware ADS-B
Fri 06:13:21 AM 42.0461 -102.5250 269° West 432 497 43,000  Level FlightAware ADS-B
Fri 06:13:52 AM 42.0453 -102.6110 269° West 432 497 43,000  Level FlightAware ADS-B
Fri 06:14:22 AM 42.0444 -102.6930 270° West 431 496 43,000  Level FlightAware ADS-B
Fri 06:14:45 AM 42.0440 -102.7530 277° West 428 493 43,000  Level FlightAware ADS-B
Fri 06:15:00 AM 42.0478 -102.7930 287° West 417 480 43,000  Level FlightAware ADS-B
Fri 06:15:16 AM 42.0568 -102.8320 297° West 409 471 43,000  Level FlightAware ADS-B
Fri 06:15:54 AM 42.0885 -102.9160 297° West 406 467 43,000  Level FlightAware ADS-B
Fri 06:16:24 AM 42.1145 -102.9840 298° West 407 468 43,000  Level FlightAware ADS-B
Fri 06:16:54 AM 42.1409 -103.0520 297° West 407 468 43,000  Level FlightAware ADS-B
Fri 06:17:25 AM 42.1670 -103.1200 297° West 407 468 43,000  Level FlightAware ADS-B
Fri 06:17:55 AM 42.1932 -103.1880 297° West 407 468 43,000  Level FlightAware ADS-B
Fri 06:18:25 AM 42.2193 -103.2560 297° West 407 468 43,000  Level FlightAware ADS-B
Fri 06:18:57 AM 42.2464 -103.3270 297° West 408 470 43,000  Level FlightAware ADS-B
Fri 06:19:35 AM 42.2789 -103.4130 297° West 408 470 43,000  Level FlightAware ADS-B
Fri 06:20:07 AM 42.3063 -103.4850 297° West 408 470 43,000  Level FlightAware ADS-B
Fri 06:20:45 AM 42.3392 -103.5720 297° West 409 471 43,000  Level FlightAware ADS-B
Fri 06:21:18 AM 42.3676 -103.6470 297° West 408 470 43,000  Level FlightAware ADS-B
Fri 06:21:50 AM 42.3951 -103.7190 297° West 408 470 43,000  Level FlightAware ADS-B
Fri 06:22:21 AM 42.4215 -103.7900 297° West 408 470 43,000  Level FlightAware ADS-B
Fri 06:22:52 AM 42.4482 -103.8610 297° West 408 470 43,000  Level FlightAware ADS-B
Fri 06:23:23 AM 42.4745 -103.9320 297° West 407 468 43,000  Level FlightAware ADS-B
Fri 06:23:38 AM 42.4875 -103.9660 303° West 405 466 43,000  Level FlightAware ADS-B
Fri 06:24:04 AM 42.5128 -104.0190 310° West 401 461 43,000  Level FlightAware ADS-B
Fri 06:24:40 AM 42.5557 -104.0880 310° West 399 459 43,000  Level FlightAware ADS-B
Fri 06:25:21 AM 42.6040 -104.1660 310° West 399 459 43,000  Level FlightAware ADS-B
Fri 06:26:00 AM 42.6510 -104.2410 310° West 399 459 43,000  Level FlightAware ADS-B
Fri 06:26:30 AM 42.6867 -104.2980 310° West 398 458 43,000  Level FlightAware ADS-B
Fri 06:27:00 AM 42.7230 -104.3570 313° West 397 457 43,000  Level FlightAware ADS-B
Fri 06:27:25 AM 42.7538 -104.4020 320° Northwest 396 456 43,000  Level FlightAware ADS-B
Fri 06:28:24 AM 42.8357 -104.4950 321° Northwest 395 455 43,000  Level FlightAware ADS-B
Fri 06:29:16 AM 42.9084 -104.5760 322° Northwest 392 451 43,000  Level FlightAware ADS-B
Fri 06:30:10 AM 42.9794 -104.6522 321° Northwest 392 451 43,000  Level Denver Center
Fri 06:31:10 AM 43.0556 -104.7381 321° Northwest 387 445 43,000  Level Denver Center
Fri 06:32:10 AM 43.1383 -104.8297 321° Northwest 387 445 43,000  Level Denver Center
Fri 06:33:10 AM 43.2314 -104.9328 320° Northwest 387 445 43,000  Level Denver Center
Fri 06:34:10 AM 43.3136 -105.0278 321° Northwest 387 445 43,000  Level Denver Center
Fri 06:35:10 AM 43.3878 -105.1117 320° Northwest 387 445 43,000  Level Denver Center
Fri 06:36:10 AM 43.4700 -105.2069 320° Northwest 382 440 43,000  Level Denver Center
Fri 06:37:10 AM 43.5606 -105.3111 322° Northwest 388 447 43,000  Level Denver Center
Fri 06:38:10 AM 43.6447 -105.4014 322° Northwest 388 447 43,000  Level Denver Center
Fri 06:39:10 AM 43.7183 -105.4806 321° Northwest 381 438 43,000  Level Denver Center
Fri 06:40:10 AM 43.8022 -105.5739 322° Northwest 386 444 43,000  Level Denver Center
Fri 06:41:10 AM 43.8925 -105.6733 322° Northwest 386 444 43,000  Level Denver Center
Fri 06:42:10 AM 43.9764 -105.7647 322° Northwest 386 444 43,000  Level Denver Center
Fri 06:43:10 AM 44.0519 -105.8475 346° North 386 444 43,000  Level Denver Center
Fri 06:44:10 AM 44.1686 -105.8867 354° North 378 435 43,000  Level Denver Center
Fri 06:45:10 AM 44.2750 -105.9031 352° North 395 455 43,000  Level Denver Center
Fri 06:46:10 AM 44.3853 -105.9253 354° North 400 460 43,000  Level Denver Center
Fri 06:47:10 AM 44.4936 -105.9419 353° North 400 460 43,000  Level Denver Center
Fri 06:48:10 AM 44.6042 -105.9614 354° North 395 455 43,000  Level Denver Center
Fri 06:48:21 AM 44.6292 -105.9653 North 403 464 43,000  Level Salt Lake Center
Fri 06:49:21 AM 44.7408 -105.9522 North 418 481 43,000  Level Salt Lake Center
Fri 06:50:21 AM 44.8444 -105.9450 North 410 472 43,000  Level Salt Lake Center
Fri 06:51:22 AM 44.9725 -105.9328 North 413 475 43,000  Level Salt Lake Center
Fri 06:52:22 AM 45.0828 -105.9231 North 413 475 43,000  Level Salt Lake Center
Fri 06:53:22 AM 45.1919 -105.9119 North 412 474 43,000  Level Salt Lake Center
Fri 06:54:23 AM 45.3214 -105.9003 North 416 479 43,000  Level Salt Lake Center
Fri 06:55:23 AM 45.4319 -105.8903 North 416 479 43,000  Level Salt Lake Center
Fri 06:56:23 AM 45.5422 -105.8800 North 416 479 43,000  Level Salt Lake Center
Fri 06:57:24 AM 45.6717 -105.8669 North 417 480 43,000  Level Salt Lake Center
Fri 06:58:24 AM 45.7825 -105.8567 20° North 417 480 43,000  Level Salt Lake Center
Fri 06:59:24 AM 45.8914 -105.8008 37° Northeast 446 513 43,000  Level Salt Lake Center
Fri 07:00:24 AM 45.9911 -105.6939 35° Northeast 467 537 43,000  Level Salt Lake Center
Fri 07:01:25 AM 46.1103 -105.5722 36° Northeast 470 541 43,000  Level Salt Lake Center
Fri 07:02:25 AM 46.2131 -105.4658 35° Northeast 474 545 43,000  Level Salt Lake Center
Fri 07:03:25 AM 46.3161 -105.3594 36° Northeast 475 547 43,000  Level Salt Lake Center
Fri 07:04:26 AM 46.4344 -105.2342 36° Northeast 473 544 43,000  Level Salt Lake Center
Fri 07:05:26 AM 46.5342 -105.1294 36° Northeast 467 537 43,000  Level Salt Lake Center
Fri 07:06:26 AM 46.6258 -105.0317 36° Northeast 463 533 43,000  Level Salt Lake Center
Fri 07:07:27 AM 46.7286 -104.9219 36° Northeast 460 529 43,000  Level Salt Lake Center
Fri 07:08:27 AM 46.8314 -104.8119 37° Northeast 459 528 43,000  Level Salt Lake Center
Fri 07:09:27 AM 46.9339 -104.7003 36° Northeast 460 529 43,000  Level Salt Lake Center
Fri 07:10:28 AM 47.0381 -104.5881 37° Northeast 463 533 43,000  Level Salt Lake Center
Fri 07:11:28 AM 47.1414 -104.4722 41° Northeast 466 536 43,000  Level Salt Lake Center
Fri 07:12:28 AM 47.2417 -104.3442 42° Northeast 471 542 43,000  Level Salt Lake Center
Fri 07:13:29 AM 47.3408 -104.2119 42° Northeast 478 550 43,000  Level Salt Lake Center
Fri 07:14:29 AM 47.4403 -104.0814 51° Northeast 479 551 43,000  Level Salt Lake Center
Fri 07:15:29 AM 47.5256 -103.9236 65° Northeast 496 571 43,000  Level Salt Lake Center
Fri 07:16:30 AM 47.5886 -103.7192 65° Northeast 508 585 43,000  Level Salt Lake Center
Fri 07:17:30 AM 47.6539 -103.5114 65° Northeast 514 592 43,000  Level Salt Lake Center
Fri 07:18:30 AM 47.7136 -103.3203 65° Northeast 516 594 43,000  Level Salt Lake Center
Fri 07:19:31 AM 47.7744 -103.1283 66° East 517 595 43,000  Level Salt Lake Center
Fri 07:20:31 AM 47.8336 -102.9336 73° East 518 596 43,000  Level Salt Lake Center
Fri 07:21:31 AM 47.8769 -102.7222 76° East 530 610 43,000  Level Salt Lake Center
Fri 07:22:32 AM 47.9131 -102.5078 75° East 537 618 43,000  Level Salt Lake Center
Fri 07:23:32 AM 47.9511 -102.2936 76° East 538 619 43,000  Level Salt Lake Center
Fri 07:24:32 AM 47.9872 -102.0822 86° East 534 615 43,000  Level Salt Lake Center
Fri 07:25:04 AM 47.9936 -101.9422 100° East 494 568 43,000  Level Minneapolis Center
Fri 07:26:04 AM 47.9661 -101.7169 97° East 533 613 43,000  Level Minneapolis Center
Fri 07:27:04 AM 47.9483 -101.4967 101° East 533 613 43,000  Level Minneapolis Center
Fri 07:28:04 AM 47.9197 -101.2747 100° East 538 619 43,000  Level Minneapolis Center
Fri 07:29:04 AM 47.8947 -101.0539 96° East 538 619 43,000  Level Minneapolis Center
Fri 07:30:04 AM 47.8800 -100.8625 100° East 524 603 43,000  Level Minneapolis Center
Fri 07:31:04 AM 47.8542 -100.6447 100° East 524 603 43,000  Level Minneapolis Center
Fri 07:32:04 AM 47.8278 -100.4306 101° East 529 609 43,000  Level Minneapolis Center
Fri 07:33:04 AM 47.8006 -100.2194 102° East 529 609 43,000  Level Minneapolis Center
Fri 07:34:04 AM 47.7711 -100.0083 99° East 529 609 43,000  Level Minneapolis Center
Fri 07:35:04 AM 47.7478 -99.7889 102° East 529 609 43,000  Level Minneapolis Center
Fri 07:36:04 AM 47.7178 -99.5753 100° East 534 615 43,000  Level Minneapolis Center
Fri 07:37:04 AM 47.6933 -99.3622 83° East 529 609 43,000  Level Minneapolis Center
Fri 07:38:04 AM 47.7092 -99.1694 41° Northeast 493 567 43,000  Level Minneapolis Center
Fri 07:39:04 AM 47.8006 -99.0525 354° North 430 495 43,000  Level Minneapolis Center
Fri 07:40:04 AM 47.9061 -99.0700 301° West 340 391 43,000  Level Minneapolis Center
Fri 07:41:04 AM 47.9653 -99.2192 290° West 486 559 43,000  Level Minneapolis Center
Fri 07:42:04 AM 48.0050 -99.3853 287° West 462 532 43,000  Level Minneapolis Center
Fri 07:43:04 AM 48.0417 -99.5603 288° West 450 518 43,000  Level Minneapolis Center
Fri 07:44:04 AM 48.0803 -99.7361 289° West 445 512 43,000  Level Minneapolis Center
Fri 07:45:04 AM 48.1189 -99.9089 288° West 445 512 43,000  Level Minneapolis Center
Fri 07:46:04 AM 48.1567 -100.0850 287° West 445 512 43,000  Level Minneapolis Center
Fri 07:47:04 AM 48.1928 -100.2581 288° West 445 512 43,000  Level Minneapolis Center
Fri 07:48:04 AM 48.2300 -100.4347 288° West 445 512 43,000  Level Minneapolis Center
Fri 07:49:04 AM 48.2675 -100.6083 288° West 445 512 43,000  Level Minneapolis Center
Fri 07:50:04 AM 48.3047 -100.7825 288° West 445 512 43,000  Level Minneapolis Center
Fri 07:51:04 AM 48.3433 -100.9603 284° West 445 512 43,000  Level Minneapolis Center
Fri 07:52:04 AM 48.3747 -101.1528 284° West 445 512 43,000  Level Minneapolis Center
Fri 07:53:04 AM 48.4044 -101.3294 270° West 440 506 43,000  Level Minneapolis Center
Fri 07:54:04 AM 48.4039 -101.5206 260° West 447 514 43,000  Level Minneapolis Center
Fri 07:55:04 AM 48.3822 -101.7117 262° West 452 520 43,000  Level Minneapolis Center
Fri 07:57:29 AM 48.3364 -102.1683 261° West 467 537 43,000  Level Salt Lake Center
Fri 07:58:30 AM 48.3156 -102.3592 261° West 467 537 43,000  Level Salt Lake Center
Fri 07:59:30 AM 48.2964 -102.5497 260° West 466 536 43,000  Level Salt Lake Center
Fri 08:00:30 AM 48.2744 -102.7389 261° West 464 534 43,000  Level Salt Lake Center
Fri 08:01:31 AM 48.2536 -102.9275 261° West 463 533 43,000  Level Salt Lake Center
Fri 08:02:31 AM 48.2336 -103.1147 260° West 461 531 43,000  Level Salt Lake Center
Fri 08:03:31 AM 48.2128 -103.2994 260° West 458 527 43,000  Level Salt Lake Center
Fri 08:04:31 AM 48.1914 -103.4828 253° West 454 522 43,000  Level Salt Lake Center
Fri 08:05:32 AM 48.1547 -103.6631 230° Southwest 459 528 43,000  Level Salt Lake Center
Fri 08:06:32 AM 48.0708 -103.8150 229° Southwest 476 548 43,000  Level Salt Lake Center
Fri 08:07:32 AM 47.9850 -103.9642 229° Southwest 479 551 43,000  Level Salt Lake Center
Fri 08:08:33 AM 47.8986 -104.1144 230° Southwest 482 555 43,000  Level Salt Lake Center
Fri 08:09:33 AM 47.7950 -104.2964 229° Southwest 485 558 43,000  Level Salt Lake Center
Fri 08:10:34 AM 47.7061 -104.4472 226° Southwest 487 560 43,000  Level Salt Lake Center
Fri 08:11:34 AM 47.6119 -104.5939 226° Southwest 491 565 43,000  Level Salt Lake Center
Fri 08:12:34 AM 47.5167 -104.7403 226° Southwest 494 568 43,000  Level Salt Lake Center
Fri 08:13:35 AM 47.4219 -104.8864 227° Southwest 495 570 43,000  Level Salt Lake Center
Fri 08:14:35 AM 47.3306 -105.0311 227° Southwest 491 565 43,000  Level Salt Lake Center
Fri 08:15:35 AM 47.2378 -105.1769 220° Southwest 489 563 43,000  Level Salt Lake Center
Fri 08:16:36 AM 47.1325 -105.3083 210° Southwest 495 570 43,000  Level Salt Lake Center
Fri 08:17:36 AM 47.0081 -105.4142 212° Southwest 519 597 43,000  Level Salt Lake Center
Fri 08:18:37 AM 46.8867 -105.5239 211° Southwest 515 593 43,000  Level Salt Lake Center
Fri 08:19:37 AM 46.7672 -105.6267 211° Southwest 515 593 43,000  Level Salt Lake Center
Fri 08:20:37 AM 46.6300 -105.7478 211° Southwest 515 593 43,000  Level Salt Lake Center
Fri 08:21:38 AM 46.5106 -105.8500 210° Southwest 518 596 43,000  Level Salt Lake Center
Fri 08:22:38 AM 46.3919 -105.9508 210° Southwest 517 595 43,000  Level Salt Lake Center
Fri 08:23:38 AM 46.2531 -106.0664 208° Southwest 516 594 43,000  Level Salt Lake Center
Fri 08:24:39 AM 46.1317 -106.1597 204° Southwest 514 592 43,000  Level Salt Lake Center
Fri 08:25:39 AM 46.0067 -106.2406 185° South 511 588 43,000  Level Salt Lake Center
Fri 08:26:40 AM 45.8561 -106.2592 190° South 555 639 43,000  Level Salt Lake Center
Fri 08:27:40 AM 45.6886 -106.3003 190° South 551 634 43,000  Level Salt Lake Center
Fri 08:28:41 AM 45.5453 -106.3364 192° South 549 632 43,000  Level Salt Lake Center
Fri 08:29:41 AM 45.4039 -106.3783 190° South 545 627 43,000  Level Salt Lake Center
Fri 08:30:42 AM 45.2353 -106.4203 188° South 547 629 43,000  Level Salt Lake Center
Fri 08:31:42 AM 45.0925 -106.4475 189° South 543 625 43,000  Level Salt Lake Center
Fri 08:32:06 AM 45.0436 -106.4589 190° South 544 626 43,000  Level Salt Lake Center
Fri 08:33:07 AM 44.8761 -106.4986 189° South 545 627 43,000  Level Salt Lake Center
Fri 08:34:07 AM 44.7325 -106.5319 189° South 545 627 43,000  Level Salt Lake Center
Fri 08:35:08 AM 44.5900 -106.5636 183° South 541 623 43,000  Level Salt Lake Center
Fri 08:36:08 AM 44.4425 -106.5744 168° South 550 633 43,000  Level Salt Lake Center
Fri 08:37:08 AM 44.2689 -106.5211 184° South 571 657 43,000  Level Salt Lake Center
Fri 08:38:09 AM 44.1242 -106.5336 224° Southwest 553 636 43,000  Level Salt Lake Center
Fri 08:39:10 AM 44.0347 -106.6542 263° West 472 543 43,000  Level Salt Lake Center
Fri 08:40:10 AM 44.0189 -106.8328 273° West 425 489 43,000  Level Salt Lake Center
Fri 08:41:11 AM 44.0253 -106.9844 274° West 411 473 43,000  Level Salt Lake Center
Fri 08:42:11 AM 44.0319 -107.1364 274° West 411 473 43,000  Level Salt Lake Center
Fri 08:43:12 AM 44.0400 -107.3131 273° West 410 472 43,000  Level Salt Lake Center
Fri 08:44:12 AM 44.0464 -107.4658 273° West 411 473 43,000  Level Salt Lake Center
Fri 08:45:13 AM 44.0525 -107.6192 273° West 413 475 43,000  Level Salt Lake Center
Fri 08:46:13 AM 44.0583 -107.7747 273° West 417 480 43,000  Level Salt Lake Center
Fri 08:47:14 AM 44.0653 -107.9581 273° West 422 486 43,000  Level Salt Lake Center
Fri 08:48:15 AM 44.0711 -108.1139 273° West 421 484 43,000  Level Salt Lake Center
Fri 08:49:15 AM 44.0769 -108.2714 273° West 423 487 43,000  Level Salt Lake Center
Fri 08:50:16 AM 44.0831 -108.4542 273° West 423 487 43,000  Level Salt Lake Center
Fri 08:51:17 AM 44.0881 -108.6122 277° West 425 489 43,000  Level Salt Lake Center
Fri 08:52:17 AM 44.1019 -108.7686 316° Northwest 426 490 43,000  Level Salt Lake Center
Fri 08:53:18 AM 44.1811 -108.8736 North 427 491 43,000  Level Salt Lake Center
Fri 08:54:19 AM 44.3200 -108.8461 27° Northeast 480 552 43,000  Level Salt Lake Center
Fri 08:55:19 AM 44.4375 -108.7633 28° Northeast 495 570 43,000  Level Salt Lake Center
Fri 08:56:20 AM 44.5536 -108.6778 27° Northeast 492 566 43,000  Level Salt Lake Center
Fri 08:57:21 AM 44.6889 -108.5789 27° Northeast 490 564 43,000  Level Salt Lake Center
Fri 08:58:21 AM 44.8050 -108.4950 27° Northeast 488 562 43,000  Level Salt Lake Center
Fri 08:59:22 AM 44.9217 -108.4122 27° Northeast 487 560 43,000  Level Salt Lake Center
Fri 09:00:23 AM 45.0567 -108.3139 28° Northeast 485 558 43,000  Level Salt Lake Center
Fri 09:01:24 AM 45.1697 -108.2292 28° Northeast 480 552 43,000  Level Salt Lake Center
Fri 09:02:24 AM 45.2831 -108.1442 28° Northeast 479 551 43,000  Level Salt Lake Center
Fri 09:03:25 AM 45.3967 -108.0594 28° Northeast 480 552 43,000  Level Salt Lake Center
Fri 09:04:26 AM 45.5278 -107.9611 28° Northeast 476 548 43,000  Level Salt Lake Center
Fri 09:05:26 AM 45.6400 -107.8767 28° Northeast 475 547 43,000  Level Salt Lake Center
Fri 09:06:27 AM 45.7517 -107.7928 28° Northeast 473 544 43,000  Level Salt Lake Center
Fri 09:07:28 AM 45.8819 -107.6936 28° Northeast 474 545 43,000  Level Salt Lake Center
Fri 09:08:29 AM 45.9928 -107.6097 28° Northeast 471 542 43,000  Level Salt Lake Center
Fri 09:09:29 AM 46.1033 -107.5247 28° Northeast 471 542 43,000  Level Salt Lake Center
Fri 09:10:30 AM 46.2319 -107.4256 28° Northeast 469 540 43,000  Level Salt Lake Center
Fri 09:11:31 AM 46.3422 -107.3403 27° Northeast 470 541 43,000  Level Salt Lake Center
Fri 09:12:32 AM 46.4539 -107.2564 28° Northeast 471 542 43,000  Level Salt Lake Center
Fri 09:13:33 AM 46.5839 -107.1567 353° North 472 543 43,000  Level Salt Lake Center
Fri 09:14:34 AM 46.6964 -107.1767 303° West 443 510 43,000  Level Salt Lake Center
Fri 09:15:35 AM 46.7556 -107.3114 282° West 426 490 43,000  Level Salt Lake Center
Fri 09:16:36 AM 46.7833 -107.5014 281° West 432 497 43,000  Level Salt Lake Center
Fri 09:17:36 AM 46.8050 -107.6642 282° West 431 496 43,000  Level Salt Lake Center
Fri 09:18:37 AM 46.8281 -107.8264 281° West 429 494 43,000  Level Salt Lake Center
Fri 09:19:38 AM 46.8542 -108.0181 282° West 430 495 43,000  Level Salt Lake Center
Fri 09:20:39 AM 46.8769 -108.1817 281° West 430 495 43,000  Level Salt Lake Center
Fri 09:21:40 AM 46.8994 -108.3456 281° West 430 495 43,000  Level Salt Lake Center
Fri 09:22:41 AM 46.9242 -108.5378 281° West 431 496 43,000  Level Salt Lake Center
Fri 09:23:42 AM 46.9456 -108.7033 281° West 433 498 43,000  Level Salt Lake Center
Fri 09:24:43 AM 46.9711 -108.8975 281° West 435 501 43,000 -49 Level Salt Lake Center
Fri 09:25:44 AM 46.9931 -109.0711 281° West 435 501 42,900  Descending Salt Lake Center
Fri 09:26:45 AM 47.0153 -109.2464 281° West 437 503 43,000 49 Climbing Salt Lake Center
Fri 09:27:46 AM 47.0372 -109.4211 280° West 437 503 43,000 -49 Level Salt Lake Center
Fri 09:28:47 AM 47.0589 -109.5964 280° West 438 504 42,900 -49 Descending Salt Lake Center
Fri 09:29:48 AM 47.0803 -109.7717 281° West 437 503 42,900 49 Level Salt Lake Center
Fri 09:30:49 AM 47.1028 -109.9453 279° West 436 502 43,000 49 Climbing Salt Lake Center
Fri 09:31:50 AM 47.1231 -110.1264 280° West 437 503 43,000  Level Salt Lake Center
Fri 09:32:51 AM 47.1425 -110.2967 280° West 437 503 43,000 -49 Level Salt Lake Center
Fri 09:33:52 AM 47.1631 -110.4708 280° West 434 499 42,900  Descending Salt Lake Center
Fri 09:34:53 AM 47.1831 -110.6450 279° West 433 498 43,000 49 Climbing Salt Lake Center
Fri 09:35:54 AM 47.2028 -110.8211 279° West 435 501 43,000  Level Salt Lake Center
Fri 09:36:56 AM 47.2225 -110.9989 279° West 438 504 43,000 -49 Level Salt Lake Center
Fri 09:37:57 AM 47.2414 -111.1783 278° West 440 506 42,900 -49 Descending Salt Lake Center
Fri 09:38:58 AM 47.2592 -111.3600 279° West 444 511 42,900  Level Salt Lake Center
Fri 09:39:59 AM 47.2783 -111.5439 279° West 448 516 42,900  Level Salt Lake Center
Fri 09:44:04 AM 47.3564 -112.3147 278° West 450 518 42,900 20 Level Salt Lake Center
Fri 09:45:05 AM 47.3739 -112.4964 278° West 448 516 43,000  Climbing Salt Lake Center
Fri 09:46:06 AM 47.3911 -112.6775 278° West 447 514 42,900  Descending Salt Lake Center
Fri 09:47:08 AM 47.4078 -112.8600 278° West 449 517 43,000  Climbing Salt Lake Center
Fri 09:48:09 AM 47.4267 -113.0558 277° West 448 516 42,900  Descending Salt Lake Center
Fri 09:49:10 AM 47.4425 -113.2383 278° West 449 517 43,000 49 Climbing Salt Lake Center
Fri 09:50:11 AM 47.4592 -113.4219 277° West 450 518 43,000 -49 Level Salt Lake Center
Fri 09:51:13 AM 47.4744 -113.6053 278° West 450 518 42,900 -49 Descending Salt Lake Center
Fri 09:52:14 AM 47.4908 -113.7906 277° West 453 521 42,900 49 Level Salt Lake Center
Fri 09:53:15 AM 47.5061 -113.9750 277° West 452 520 43,000  Climbing Salt Lake Center
Fri 09:54:16 AM 47.5214 -114.1592 277° West 450 518 42,900 -49 Descending Salt Lake Center
Fri 09:55:18 AM 47.5361 -114.3439 277° West 450 518 42,900 49 Level Salt Lake Center
Fri 09:56:19 AM 47.5506 -114.5297 261° West 451 519 43,000  Climbing Salt Lake Center
Fri 09:57:01 AM 47.5344 -114.6772 214° Southwest 460 529 42,900  Descending Seattle Center
Fri 09:58:01 AM 47.4267 -114.7844 195° South 488 562 43,000  Climbing Seattle Center
Fri 09:58:59 AM 47.2925 -114.8361 194° South 497 572 42,900  Descending Salt Lake Center
Fri 10:00:00 AM 47.1583 -114.8839 194° South 497 572 43,000  Climbing Salt Lake Center
Fri 10:01:01 AM 47.0236 -114.9336 194° South 500 575 42,900  Descending Salt Lake Center
Fri 10:02:03 AM 46.8886 -114.9833 194° South 501 577 43,000 48 Climbing Salt Lake Center
Fri 10:03:05 AM 46.7547 -115.0322 194° South 499 574 43,000 -49 Level Seattle Center
Fri 10:04:06 AM 46.6031 -115.0864 194° South 499 574 42,900  Descending Seattle Center
Fri 10:05:07 AM 46.4867 -115.1292 194° South 497 572 43,000 49 Climbing Salt Lake Center
Fri 10:06:08 AM 46.3372 -115.1825 193° South 492 566 43,000 -49 Level Seattle Center
Fri 10:07:09 AM 46.2056 -115.2281 194° South 489 563 42,900  Descending Seattle Center
Fri 10:08:10 AM 46.0742 -115.2750 189° South 487 560 43,000 97 Climbing Seattle Center
Fri 10:08:11 AM 46.0706 -115.2758 194° South 486 559 43,000  Level Salt Lake Center
Fri 10:09:13 AM 45.9250 -115.3275 194° South 483 556 43,000  Level Salt Lake Center
Fri 10:10:14 AM 45.7994 -115.3714 193° South 484 557 43,000  Level Salt Lake Center
Fri 10:10:24 AM 45.7781 -115.3783 194° South 484 557 43,000  Level Seattle Center
Fri 10:11:24 AM 45.6511 -115.4231 194° South 487 560 43,000  Level Seattle Center
Fri 10:12:17 AM 45.5239 -115.4672 194° South 491 565 43,000  Level Salt Lake Center
Fri 10:13:19 AM 45.3972 -115.5108 194° South 490 564 43,000  Level Salt Lake Center
Fri 10:14:20 AM 45.2519 -115.5611 194° South 483 556 43,000  Level Salt Lake Center
Fri 10:15:22 AM 45.1275 -115.6042 193° South 481 554 43,000  Level Salt Lake Center
Fri 10:16:23 AM 45.0033 -115.6456 194° South 479 551 43,000  Level Salt Lake Center
Fri 10:17:25 AM 44.8581 -115.6958 194° South 480 552 43,000  Level Salt Lake Center
Fri 10:18:26 AM 44.7342 -115.7397 239° Southwest 479 551 43,000  Level Salt Lake Center
Fri 10:19:28 AM 44.6669 -115.8983 278° West 439 505 43,000  Level Salt Lake Center
Fri 10:20:29 AM 44.6817 -116.0564 278° West 431 496 43,000  Level Salt Lake Center
Fri 10:21:31 AM 44.7003 -116.2408 278° West 432 497 43,000  Level Salt Lake Center
Fri 10:22:32 AM 44.7161 -116.3992 278° West 432 497 43,000  Level Salt Lake Center
Fri 10:23:34 AM 44.7325 -116.5583 278° West 432 497 43,000  Level Salt Lake Center
Fri 10:24:35 AM 44.7506 -116.7450 278° West 432 497 43,000  Level Salt Lake Center
Fri 10:25:37 AM 44.7658 -116.9053 278° West 433 498 43,000  Level Salt Lake Center
Fri 10:26:38 AM 44.7839 -117.0925 277° West 434 499 43,000  Level Salt Lake Center
Fri 10:27:40 AM 44.7983 -117.2522 278° West 432 497 43,000  Level Salt Lake Center
Fri 10:28:41 AM 44.8161 -117.4367 277° West 428 493 43,000  Level Salt Lake Center
Fri 10:29:43 AM 44.8303 -117.5953 297° West 427 491 43,000  Level Salt Lake Center
Fri 10:30:44 AM 44.8819 -117.7372 351° North 435 501 43,000  Level Salt Lake Center
Fri 10:31:46 AM 45.0267 -117.7714 12° North 498 573 43,000  Level Salt Lake Center
Fri 10:32:47 AM 45.1586 -117.7328 11° North 506 582 43,000  Level Salt Lake Center
Fri 10:33:45 AM 45.2950 -117.6947 11° North 502 578 43,000  Level Seattle Center
Fri 10:34:46 AM 45.4325 -117.6556 11° North 505 581 43,000  Level Seattle Center
Fri 10:35:47 AM 45.5714 -117.6153 12° North 509 586 43,000  Level Seattle Center
Fri 10:36:48 AM 45.7106 -117.5744 12° North 507 583 43,000 -49 Level Seattle Center
Fri 10:37:49 AM 45.8494 -117.5333 11° North 508 585 42,900 -49 Descending Seattle Center
Fri 10:38:50 AM 45.9875 -117.4933 11° North 509 586 42,900  Level Seattle Center
Fri 10:39:51 AM 46.1258 -117.4531 12° North 508 585 42,900  Level Seattle Center
Fri 10:40:52 AM 46.2639 -117.4111 12° North 509 586 42,900 49 Level Seattle Center
Fri 10:41:53 AM 46.4019 -117.3697 12° North 507 583 43,000  Climbing Seattle Center
Fri 10:42:54 AM 46.5389 -117.3289 12° North 504 580 42,900  Descending Seattle Center
Fri 10:43:55 AM 46.7019 -117.2803 12° North 502 578 43,000  Climbing Seattle Center
Fri 10:44:56 AM 46.8394 -117.2383 12° North 503 579 42,900  Descending Seattle Center
Fri 10:45:57 AM 46.9758 -117.1958 12° North 503 579 43,000 49 Climbing Seattle Center
Fri 10:46:58 AM 47.1128 -117.1536 12° North 504 580 43,000  Level Seattle Center
Fri 10:47:59 AM 47.2483 -117.1108 12° North 502 578 43,000 -49 Level Seattle Center
Fri 10:49:00 AM 47.3839 -117.0681 340° North 501 577 42,900  Descending Seattle Center
Fri 10:50:01 AM 47.5133 -117.1361 287° West 484 557 43,000 49 Climbing Seattle Center
Fri 10:51:02 AM 47.5489 -117.3050 270° West 465 535 43,000  Level Seattle Center
Fri 10:52:03 AM 47.5497 -117.4919 270° West 457 526 43,000  Level Seattle Center
Fri 10:53:04 AM 47.5486 -117.6761 270° West 452 520 43,000 -49 Level Seattle Center
Fri 10:54:05 AM 47.5478 -117.8617 269° West 451 519 42,900  Descending Seattle Center
Fri 10:55:06 AM 47.5461 -118.0458 270° West 449 517 43,000  Climbing Seattle Center
Fri 10:56:07 AM 47.5450 -118.2294 269° West 448 516 42,900 -49 Descending Seattle Center
Fri 10:57:08 AM 47.5428 -118.4142 269° West 449 517 42,900  Level Seattle Center
Fri 10:58:09 AM 47.5408 -118.5992 269° West 451 519 42,900  Level Seattle Center
Fri 10:59:10 AM 47.5369 -118.8222 269° West 453 521 42,900  Level Seattle Center
Fri 11:00:11 AM 47.5350 -119.0097 268° West 456 525 42,900 49 Level Seattle Center
Fri 11:01:12 AM 47.5314 -119.1969 268° West 456 525 43,000  Climbing Seattle Center
Fri 11:02:13 AM 47.5278 -119.3847 268° West 457 526 42,900 -49 Descending Seattle Center
Fri 11:03:14 AM 47.5242 -119.5708 268° West 456 525 42,900 49 Level Seattle Center
Fri 11:04:15 AM 47.5200 -119.7619 268° West 461 531 43,000  Climbing Seattle Center
Fri 11:05:16 AM 47.5156 -119.9494 268° West 460 529 42,900  Descending Seattle Center
Fri 11:06:17 AM 47.5111 -120.1367 268° West 459 528 43,000 49 Climbing Seattle Center
Fri 11:07:18 AM 47.5061 -120.3242 268° West 458 527 43,000 -49 Level Seattle Center
Fri 11:08:19 AM 47.5006 -120.5103 267° West 456 525 42,900  Descending Seattle Center
Fri 11:11:22 AM 47.4819 -121.0758 267° West 447 514 43,000 25 Climbing Seattle Center
Fri 11:12:23 AM 47.4761 -121.2608 267° West 453 521 43,000  Level Seattle Center
Fri 11:13:24 AM 47.4700 -121.4461 267° West 455 524 43,000  Level Seattle Center
Fri 11:14:26 AM 47.4617 -121.6678 267° West 455 524 43,000  Level Seattle Center
Fri 11:15:27 AM 47.4544 -121.8542 266° West 457 526 43,000  Level Seattle Center
Fri 11:16:28 AM 47.4464 -122.0408 267° West 458 527 43,000  Level Seattle Center
Fri 11:17:29 AM 47.4386 -122.2308 271° West 461 531 43,000  Level Seattle Center
Fri 11:18:30 AM 47.4403 -122.4231 298° West 476 548 43,000  Level Seattle Center
Fri 11:19:31 AM 47.5025 -122.5969 301° West 476 548 43,000 -639 Level Seattle Center
Fri 11:20:32 AM 47.5717 -122.7669 300° West 480 552 41,700 -2,951 Descending Seattle Center
Fri 11:21:33 AM 47.6342 -122.9269 300° West 458 527 37,000 -5,459 Descending Seattle Center
Fri 11:22:34 AM 47.6961 -123.0897 299° West 455 524 30,600 -5,951 Descending Seattle Center
Fri 11:23:35 AM 47.7583 -123.2558 298° West 459 528 24,900 -5,262 Descending Seattle Center
Fri 11:24:36 AM 47.8133 -123.4108 307° West 434 499 19,900 -4,967 Descending Seattle Center
Fri 11:25:37 AM 47.8878 -123.5564 North 379 436 14,800 -4,082 Descending Seattle Center
Fri 11:26:38 AM 47.9750 -123.5408 63° Northeast 337 388 11,600 -1,869 Descending Seattle Center
Fri 11:27:39 AM 48.0119 -123.4331 87° East 305 351 11,000 -295 Descending Seattle Center
Fri 11:28:40 AM 48.0158 -123.3131 87° East 292 336 11,000  Level Seattle Center
Fri 11:29:41 AM 48.0197 -123.1864 87° East 304 350 11,000  Level Seattle Center
Fri 11:30:42 AM 48.0244 -123.0633 86° East 299 344 11,000  Level Seattle Center
Fri 11:31:05 AM 48.0269 -123.0031 88° East 297 342 11,000  Level Seattle Center
Fri 11:31:43 AM 48.0281 -122.9408 86° East 298 343 11,000  Level Seattle Center
Fri 11:31:47 AM 48.0294 -122.9128 108° East 300 345 11,000 -98 Level Seattle Center
Fri 11:32:44 AM 48.0117 -122.8292 143° Southeast 285 328 10,900 -197 Descending Seattle Center
Fri 11:32:48 AM 47.9983 -122.8139 150° Southeast 270 311 10,800 -590 Descending Seattle Center
Fri 11:33:45 AM 47.9531 -122.7742 148° Southeast 253 291 10,300 -700 Descending Seattle Center
Fri 11:33:48 AM 47.9386 -122.7608 147° Southeast 250 288 10,100 -984 Descending Seattle Center
Fri 11:34:46 AM 47.8847 -122.7092 153° Southeast 247 284 9,300 -885 Descending Seattle Center
Fri 11:34:49 AM 47.8836 -122.7083 149° Southeast 245 282 9,200 -1,672 Descending Seattle Center
Fri 11:35:47 AM 47.8294 -122.6603 175° South 236 272 7,600 -1,672 Descending Seattle Center
Fri 11:35:50 AM 47.8272 -122.6600 174° South 227 261 7,500 -3,049 Descending Seattle Center
Fri 11:36:48 AM 47.7697 -122.6506 176° South 211 243 4,500 -3,200 Descending Seattle Center
Fri 11:36:50 AM 47.7672 -122.6503 129° Southeast 210 242 4,300 -2,164 Descending Seattle Center
Fri 11:37:49 AM 47.7342 -122.5892 110° East 211 243 2,300 -1,967 Descending Seattle Center
Fri 11:37:51 AM 47.7328 -122.5836 114° Southeast 212 244 2,300 -98 Level Seattle Center
Fri 11:38:50 AM 47.7139 -122.5217 135° Southeast 178 205 2,200 -98 Descending Seattle Center
Fri 11:38:52 AM 47.7122 -122.5192 118° Southeast 163 188 2,200  Level Seattle Center
Fri 11:39:58 AM 47.6889 -122.4528 134° Southeast 158 182 2,200  Level Seattle Center
Fri 11:40:52 AM 47.6636 -122.4136 159° South 158 182 2,200  Level Seattle Center
Fri 11:40:59 AM 47.6583 -122.4106 153° Southeast 161 185 2,200 -98 Level Seattle Center
Fri 11:41:53 AM 47.6258 -122.3856 147° Southeast 150 173 2,100 -269 Descending Seattle Center
Fri 11:42:06 AM 47.6194 -122.3794 149° Southeast 141 162 1,900 -689 Descending Seattle Center
Fri 11:42:54 AM 47.5967 -122.3594 286° West 125 144 1,400 -625 Descending Seattle Center
Fri 11:42:54 AM 47.5972 -122.3622 149° Southeast 123 142 1,400 -716 Level Seattle Center
Fri 11:44:01 AM 47.5628 -122.3317 149° Southeast 128 147 600 -639 Descending Seattle Center
Fri 11:44:56 AM 47.5406 -122.3117 150° Southeast 123 142 100 -259 Descending Seattle Center
Fri 11:45:57 AM 47.5103 -122.2858 150° Southeast 124 143 100  Level Seattle Center

Login

Don't have an account? Register now (free) for customized features, flight alerts, and more!